<?xml version="1.0" encoding="UTF-8" standalone="no" ?>
<gpx xmlns="http://www.topografix.com/GPX/1/1" xmlns:xsi="http://www.w3.org/2001/XMLSchema-instance" xsi:schemaLocation="http://www.topografix.com/GPX/1/1 http://www.topografix.com/GPX/1/1/gpx.xsd" version="1.1" creator="VisuGPX - https://www.visugpx.com">
  <metadata>
    <name>perquelin - aulp du seuil</name>
    <desc><![CDATA[projet de randonnée en raquette]]></desc>
  </metadata>
  <trk>
    <name><![CDATA[20190128093344-f4hkZ]]></name>
    <trkseg>
      <trkpt lat="45.35497" lon="5.91872">
        <ele>1053</ele>
        <time>2013-10-30T08:57:07Z</time>
      </trkpt>
      <trkpt lat="45.35497" lon="5.91872">
        <ele>1053</ele>
        <time>2013-10-30T08:57:07Z</time>
      </trkpt>
      <trkpt lat="45.35495" lon="5.91859">
        <ele>1054</ele>
        <time>2013-10-30T08:57:25Z</time>
      </trkpt>
      <trkpt lat="45.35493" lon="5.91846">
        <ele>1054.3</ele>
        <time>2013-10-30T08:57:37Z</time>
      </trkpt>
      <trkpt lat="45.35501" lon="5.91839">
        <ele>1055.1</ele>
        <time>2013-10-30T08:57:48Z</time>
      </trkpt>
      <trkpt lat="45.35508" lon="5.9183">
        <ele>1055.9</ele>
        <time>2013-10-30T08:57:59Z</time>
      </trkpt>
      <trkpt lat="45.35505" lon="5.91818">
        <ele>1056.4</ele>
        <time>2013-10-30T08:58:10Z</time>
      </trkpt>
      <trkpt lat="45.35501" lon="5.91806">
        <ele>1057.7</ele>
        <time>2013-10-30T08:58:20Z</time>
      </trkpt>
      <trkpt lat="45.35494" lon="5.91796">
        <ele>1057.5</ele>
        <time>2013-10-30T08:58:32Z</time>
      </trkpt>
      <trkpt lat="45.35491" lon="5.91784">
        <ele>1056.9</ele>
        <time>2013-10-30T08:58:40Z</time>
      </trkpt>
      <trkpt lat="45.35488" lon="5.91771">
        <ele>1059.4</ele>
        <time>2013-10-30T08:58:49Z</time>
      </trkpt>
      <trkpt lat="45.35485" lon="5.91758">
        <ele>1059.8</ele>
        <time>2013-10-30T08:58:58Z</time>
      </trkpt>
      <trkpt lat="45.35482" lon="5.91746">
        <ele>1061.3</ele>
        <time>2013-10-30T08:59:07Z</time>
      </trkpt>
      <trkpt lat="45.35479" lon="5.91734">
        <ele>1063.4</ele>
        <time>2013-10-30T08:59:17Z</time>
      </trkpt>
      <trkpt lat="45.35475" lon="5.91722">
        <ele>1063.9</ele>
        <time>2013-10-30T08:59:26Z</time>
      </trkpt>
      <trkpt lat="45.35472" lon="5.91708">
        <ele>1063.7</ele>
        <time>2013-10-30T08:59:35Z</time>
      </trkpt>
      <trkpt lat="45.35469" lon="5.91695">
        <ele>1064.2</ele>
        <time>2013-10-30T08:59:44Z</time>
      </trkpt>
      <trkpt lat="45.35466" lon="5.91683">
        <ele>1064.6</ele>
        <time>2013-10-30T08:59:52Z</time>
      </trkpt>
      <trkpt lat="45.35464" lon="5.9167">
        <ele>1065.3</ele>
        <time>2013-10-30T09:00:00Z</time>
      </trkpt>
      <trkpt lat="45.35461" lon="5.91658">
        <ele>1065.7</ele>
        <time>2013-10-30T09:00:08Z</time>
      </trkpt>
      <trkpt lat="45.35459" lon="5.91645">
        <ele>1064.8</ele>
        <time>2013-10-30T09:00:24Z</time>
      </trkpt>
      <trkpt lat="45.35456" lon="5.91633">
        <ele>1066.4</ele>
        <time>2013-10-30T09:00:33Z</time>
      </trkpt>
      <trkpt lat="45.35452" lon="5.9162">
        <ele>1066.7</ele>
        <time>2013-10-30T09:00:43Z</time>
      </trkpt>
      <trkpt lat="45.35448" lon="5.91608">
        <ele>1066.7</ele>
        <time>2013-10-30T09:00:53Z</time>
      </trkpt>
      <trkpt lat="45.35442" lon="5.91598">
        <ele>1068</ele>
        <time>2013-10-30T09:01:03Z</time>
      </trkpt>
      <trkpt lat="45.35436" lon="5.91587">
        <ele>1068.3</ele>
        <time>2013-10-30T09:01:14Z</time>
      </trkpt>
      <trkpt lat="45.3543" lon="5.91578">
        <ele>1069.1</ele>
        <time>2013-10-30T09:01:24Z</time>
      </trkpt>
      <trkpt lat="45.35423" lon="5.91568">
        <ele>1069.4</ele>
        <time>2013-10-30T09:01:33Z</time>
      </trkpt>
      <trkpt lat="45.35417" lon="5.91557">
        <ele>1069.4</ele>
        <time>2013-10-30T09:01:43Z</time>
      </trkpt>
      <trkpt lat="45.35412" lon="5.91547">
        <ele>1068.9</ele>
        <time>2013-10-30T09:01:52Z</time>
      </trkpt>
      <trkpt lat="45.35406" lon="5.91537">
        <ele>1069.5</ele>
        <time>2013-10-30T09:02:02Z</time>
      </trkpt>
      <trkpt lat="45.354" lon="5.91527">
        <ele>1070.9</ele>
        <time>2013-10-30T09:02:12Z</time>
      </trkpt>
      <trkpt lat="45.35395" lon="5.91516">
        <ele>1071.1</ele>
        <time>2013-10-30T09:02:22Z</time>
      </trkpt>
      <trkpt lat="45.35389" lon="5.91506">
        <ele>1074.3</ele>
        <time>2013-10-30T09:02:33Z</time>
      </trkpt>
      <trkpt lat="45.35385" lon="5.91494">
        <ele>1076.4</ele>
        <time>2013-10-30T09:02:43Z</time>
      </trkpt>
      <trkpt lat="45.35382" lon="5.91482">
        <ele>1078.9</ele>
        <time>2013-10-30T09:02:53Z</time>
      </trkpt>
      <trkpt lat="45.3538" lon="5.91468">
        <ele>1079.3</ele>
        <time>2013-10-30T09:03:02Z</time>
      </trkpt>
      <trkpt lat="45.35379" lon="5.91456">
        <ele>1080.9</ele>
        <time>2013-10-30T09:03:12Z</time>
      </trkpt>
      <trkpt lat="45.35378" lon="5.91443">
        <ele>1083</ele>
        <time>2013-10-30T09:03:22Z</time>
      </trkpt>
      <trkpt lat="45.35378" lon="5.9143">
        <ele>1084.5</ele>
        <time>2013-10-30T09:03:31Z</time>
      </trkpt>
      <trkpt lat="45.35378" lon="5.91416">
        <ele>1086.1</ele>
        <time>2013-10-30T09:03:41Z</time>
      </trkpt>
      <trkpt lat="45.35377" lon="5.91403">
        <ele>1086.6</ele>
        <time>2013-10-30T09:03:50Z</time>
      </trkpt>
      <trkpt lat="45.35375" lon="5.9139">
        <ele>1087.3</ele>
        <time>2013-10-30T09:03:59Z</time>
      </trkpt>
      <trkpt lat="45.35373" lon="5.91378">
        <ele>1088.1</ele>
        <time>2013-10-30T09:04:09Z</time>
      </trkpt>
      <trkpt lat="45.35369" lon="5.91366">
        <ele>1088.5</ele>
        <time>2013-10-30T09:04:18Z</time>
      </trkpt>
      <trkpt lat="45.35365" lon="5.91354">
        <ele>1088.5</ele>
        <time>2013-10-30T09:04:27Z</time>
      </trkpt>
      <trkpt lat="45.35361" lon="5.91343">
        <ele>1088.3</ele>
        <time>2013-10-30T09:04:36Z</time>
      </trkpt>
      <trkpt lat="45.35356" lon="5.91332">
        <ele>1088.1</ele>
        <time>2013-10-30T09:04:46Z</time>
      </trkpt>
      <trkpt lat="45.3535" lon="5.91321">
        <ele>1088.1</ele>
        <time>2013-10-30T09:04:56Z</time>
      </trkpt>
      <trkpt lat="45.35344" lon="5.91312">
        <ele>1088.9</ele>
        <time>2013-10-30T09:05:06Z</time>
      </trkpt>
      <trkpt lat="45.3534" lon="5.91299">
        <ele>1088.5</ele>
        <time>2013-10-30T09:05:17Z</time>
      </trkpt>
      <trkpt lat="45.35346" lon="5.91288">
        <ele>1089.5</ele>
        <time>2013-10-30T09:05:29Z</time>
      </trkpt>
      <trkpt lat="45.35356" lon="5.91286">
        <ele>1090.9</ele>
        <time>2013-10-30T09:05:41Z</time>
      </trkpt>
      <trkpt lat="45.35363" lon="5.91294">
        <ele>1092.6</ele>
        <time>2013-10-30T09:05:52Z</time>
      </trkpt>
      <trkpt lat="45.35367" lon="5.91305">
        <ele>1095.9</ele>
        <time>2013-10-30T09:06:04Z</time>
      </trkpt>
      <trkpt lat="45.35374" lon="5.91316">
        <ele>1098.3</ele>
        <time>2013-10-30T09:06:14Z</time>
      </trkpt>
      <trkpt lat="45.3538" lon="5.91326">
        <ele>1099.4</ele>
        <time>2013-10-30T09:06:23Z</time>
      </trkpt>
      <trkpt lat="45.35385" lon="5.91337">
        <ele>1100.4</ele>
        <time>2013-10-30T09:06:35Z</time>
      </trkpt>
      <trkpt lat="45.35392" lon="5.91348">
        <ele>1100.9</ele>
        <time>2013-10-30T09:06:47Z</time>
      </trkpt>
      <trkpt lat="45.35398" lon="5.91357">
        <ele>1100.4</ele>
        <time>2013-10-30T09:06:57Z</time>
      </trkpt>
      <trkpt lat="45.35407" lon="5.91362">
        <ele>1100.9</ele>
        <time>2013-10-30T09:07:04Z</time>
      </trkpt>
      <trkpt lat="45.35412" lon="5.91372">
        <ele>1102.5</ele>
        <time>2013-10-30T09:07:15Z</time>
      </trkpt>
      <trkpt lat="45.35413" lon="5.91384">
        <ele>1106.8</ele>
        <time>2013-10-30T09:07:27Z</time>
      </trkpt>
      <trkpt lat="45.35421" lon="5.91392">
        <ele>1107.3</ele>
        <time>2013-10-30T09:07:37Z</time>
      </trkpt>
      <trkpt lat="45.35428" lon="5.914">
        <ele>1108.8</ele>
        <time>2013-10-30T09:07:47Z</time>
      </trkpt>
      <trkpt lat="45.35436" lon="5.91405">
        <ele>1108.7</ele>
        <time>2013-10-30T09:07:53Z</time>
      </trkpt>
      <trkpt lat="45.35443" lon="5.91414">
        <ele>1110.9</ele>
        <time>2013-10-30T09:08:04Z</time>
      </trkpt>
      <trkpt lat="45.35452" lon="5.91418">
        <ele>1113</ele>
        <time>2013-10-30T09:08:12Z</time>
      </trkpt>
      <trkpt lat="45.35461" lon="5.91424">
        <ele>1113.7</ele>
        <time>2013-10-30T09:08:21Z</time>
      </trkpt>
      <trkpt lat="45.35468" lon="5.91432">
        <ele>1115.1</ele>
        <time>2013-10-30T09:08:31Z</time>
      </trkpt>
      <trkpt lat="45.35476" lon="5.91438">
        <ele>1116.4</ele>
        <time>2013-10-30T09:08:39Z</time>
      </trkpt>
      <trkpt lat="45.35485" lon="5.91442">
        <ele>1116.7</ele>
        <time>2013-10-30T09:08:46Z</time>
      </trkpt>
      <trkpt lat="45.35493" lon="5.91448">
        <ele>1117.2</ele>
        <time>2013-10-30T09:08:57Z</time>
      </trkpt>
      <trkpt lat="45.35502" lon="5.91452">
        <ele>1119</ele>
        <time>2013-10-30T09:09:07Z</time>
      </trkpt>
      <trkpt lat="45.35511" lon="5.91455">
        <ele>1120.9</ele>
        <time>2013-10-30T09:09:16Z</time>
      </trkpt>
      <trkpt lat="45.35521" lon="5.91458">
        <ele>1121.6</ele>
        <time>2013-10-30T09:09:36Z</time>
      </trkpt>
      <trkpt lat="45.35527" lon="5.91468">
        <ele>1122.1</ele>
        <time>2013-10-30T09:09:47Z</time>
      </trkpt>
      <trkpt lat="45.35536" lon="5.9147">
        <ele>1122.3</ele>
        <time>2013-10-30T09:09:52Z</time>
      </trkpt>
      <trkpt lat="45.35545" lon="5.91476">
        <ele>1124.2</ele>
        <time>2013-10-30T09:10:00Z</time>
      </trkpt>
      <trkpt lat="45.35554" lon="5.91476">
        <ele>1126.1</ele>
        <time>2013-10-30T09:10:06Z</time>
      </trkpt>
      <trkpt lat="45.35564" lon="5.91479">
        <ele>1126.6</ele>
        <time>2013-10-30T09:10:16Z</time>
      </trkpt>
      <trkpt lat="45.35574" lon="5.91475">
        <ele>1125.7</ele>
        <time>2013-10-30T09:10:23Z</time>
      </trkpt>
      <trkpt lat="45.3558" lon="5.91463">
        <ele>1126.5</ele>
        <time>2013-10-30T09:10:33Z</time>
      </trkpt>
      <trkpt lat="45.35577" lon="5.91451">
        <ele>1126.7</ele>
        <time>2013-10-30T09:10:42Z</time>
      </trkpt>
      <trkpt lat="45.35572" lon="5.9144">
        <ele>1127.5</ele>
        <time>2013-10-30T09:10:51Z</time>
      </trkpt>
      <trkpt lat="45.35567" lon="5.91429">
        <ele>1127.6</ele>
        <time>2013-10-30T09:11:00Z</time>
      </trkpt>
      <trkpt lat="45.35564" lon="5.91416">
        <ele>1124.7</ele>
        <time>2013-10-30T09:11:08Z</time>
      </trkpt>
      <trkpt lat="45.35556" lon="5.91412">
        <ele>1126.5</ele>
        <time>2013-10-30T09:11:19Z</time>
      </trkpt>
      <trkpt lat="45.35549" lon="5.91402">
        <ele>1125.8</ele>
        <time>2013-10-30T09:11:28Z</time>
      </trkpt>
      <trkpt lat="45.35544" lon="5.9139">
        <ele>1124.5</ele>
        <time>2013-10-30T09:11:37Z</time>
      </trkpt>
      <trkpt lat="45.35538" lon="5.91378">
        <ele>1125.6</ele>
        <time>2013-10-30T09:11:47Z</time>
      </trkpt>
      <trkpt lat="45.35533" lon="5.91367">
        <ele>1125.5</ele>
        <time>2013-10-30T09:11:57Z</time>
      </trkpt>
      <trkpt lat="45.35529" lon="5.91355">
        <ele>1125.8</ele>
        <time>2013-10-30T09:12:08Z</time>
      </trkpt>
      <trkpt lat="45.35536" lon="5.91346">
        <ele>1127.8</ele>
        <time>2013-10-30T09:12:35Z</time>
      </trkpt>
      <trkpt lat="45.35544" lon="5.91351">
        <ele>1131.4</ele>
        <time>2013-10-30T09:13:04Z</time>
      </trkpt>
      <trkpt lat="45.35553" lon="5.91352">
        <ele>1133.5</ele>
        <time>2013-10-30T09:13:15Z</time>
      </trkpt>
      <trkpt lat="45.35562" lon="5.9135">
        <ele>1131.5</ele>
        <time>2013-10-30T09:13:28Z</time>
      </trkpt>
      <trkpt lat="45.35569" lon="5.91344">
        <ele>1127.9</ele>
        <time>2013-10-30T09:15:07Z</time>
      </trkpt>
      <trkpt lat="45.35577" lon="5.91338">
        <ele>1126.7</ele>
        <time>2013-10-30T09:15:20Z</time>
      </trkpt>
      <trkpt lat="45.35585" lon="5.91346">
        <ele>1125.3</ele>
        <time>2013-10-30T09:16:12Z</time>
      </trkpt>
      <trkpt lat="45.35592" lon="5.91356">
        <ele>1124.8</ele>
        <time>2013-10-30T09:16:21Z</time>
      </trkpt>
      <trkpt lat="45.35596" lon="5.91367">
        <ele>1126.6</ele>
        <time>2013-10-30T09:16:35Z</time>
      </trkpt>
      <trkpt lat="45.35603" lon="5.91356">
        <ele>1128.8</ele>
        <time>2013-10-30T09:16:54Z</time>
      </trkpt>
      <trkpt lat="45.35612" lon="5.91349">
        <ele>1129.5</ele>
        <time>2013-10-30T09:17:08Z</time>
      </trkpt>
      <trkpt lat="45.3562" lon="5.91343">
        <ele>1127.8</ele>
        <time>2013-10-30T09:17:22Z</time>
      </trkpt>
      <trkpt lat="45.35629" lon="5.91346">
        <ele>1128.1</ele>
        <time>2013-10-30T09:17:38Z</time>
      </trkpt>
      <trkpt lat="45.35638" lon="5.91347">
        <ele>1130.3</ele>
        <time>2013-10-30T09:17:57Z</time>
      </trkpt>
      <trkpt lat="45.35645" lon="5.91352">
        <ele>1136.9</ele>
        <time>2013-10-30T09:18:10Z</time>
      </trkpt>
      <trkpt lat="45.35653" lon="5.91353">
        <ele>1141</ele>
        <time>2013-10-30T09:18:23Z</time>
      </trkpt>
      <trkpt lat="45.35662" lon="5.91349">
        <ele>1143.9</ele>
        <time>2013-10-30T09:18:34Z</time>
      </trkpt>
      <trkpt lat="45.3567" lon="5.91348">
        <ele>1148.2</ele>
        <time>2013-10-30T09:18:52Z</time>
      </trkpt>
      <trkpt lat="45.35678" lon="5.91341">
        <ele>1150.7</ele>
        <time>2013-10-30T09:19:03Z</time>
      </trkpt>
      <trkpt lat="45.35686" lon="5.91335">
        <ele>1150.3</ele>
        <time>2013-10-30T09:19:20Z</time>
      </trkpt>
      <trkpt lat="45.35695" lon="5.91335">
        <ele>1147.4</ele>
        <time>2013-10-30T09:19:40Z</time>
      </trkpt>
      <trkpt lat="45.35702" lon="5.91331">
        <ele>1142.6</ele>
        <time>2013-10-30T09:19:51Z</time>
      </trkpt>
      <trkpt lat="45.35711" lon="5.91328">
        <ele>1139.8</ele>
        <time>2013-10-30T09:20:07Z</time>
      </trkpt>
      <trkpt lat="45.3572" lon="5.9133">
        <ele>1139.9</ele>
        <time>2013-10-30T09:20:24Z</time>
      </trkpt>
      <trkpt lat="45.35729" lon="5.91327">
        <ele>1141.9</ele>
        <time>2013-10-30T09:20:35Z</time>
      </trkpt>
      <trkpt lat="45.35737" lon="5.91323">
        <ele>1145.2</ele>
        <time>2013-10-30T09:20:50Z</time>
      </trkpt>
      <trkpt lat="45.35745" lon="5.9132">
        <ele>1148.4</ele>
        <time>2013-10-30T09:21:03Z</time>
      </trkpt>
      <trkpt lat="45.35754" lon="5.9132">
        <ele>1152.1</ele>
        <time>2013-10-30T09:21:23Z</time>
      </trkpt>
      <trkpt lat="45.35762" lon="5.91316">
        <ele>1154.8</ele>
        <time>2013-10-30T09:21:36Z</time>
      </trkpt>
      <trkpt lat="45.35771" lon="5.91313">
        <ele>1159.3</ele>
        <time>2013-10-30T09:21:46Z</time>
      </trkpt>
      <trkpt lat="45.35777" lon="5.91306">
        <ele>1165.1</ele>
        <time>2013-10-30T09:22:00Z</time>
      </trkpt>
      <trkpt lat="45.35786" lon="5.91301">
        <ele>1166.5</ele>
        <time>2013-10-30T09:22:15Z</time>
      </trkpt>
      <trkpt lat="45.35795" lon="5.91303">
        <ele>1165.7</ele>
        <time>2013-10-30T09:22:35Z</time>
      </trkpt>
      <trkpt lat="45.35805" lon="5.913">
        <ele>1165.2</ele>
        <time>2013-10-30T09:22:47Z</time>
      </trkpt>
      <trkpt lat="45.35814" lon="5.91296">
        <ele>1167.5</ele>
        <time>2013-10-30T09:22:58Z</time>
      </trkpt>
      <trkpt lat="45.35822" lon="5.9129">
        <ele>1171.9</ele>
        <time>2013-10-30T09:23:20Z</time>
      </trkpt>
      <trkpt lat="45.35829" lon="5.9128">
        <ele>1173.6</ele>
        <time>2013-10-30T09:23:36Z</time>
      </trkpt>
      <trkpt lat="45.35834" lon="5.9127">
        <ele>1175.5</ele>
        <time>2013-10-30T09:23:57Z</time>
      </trkpt>
      <trkpt lat="45.35842" lon="5.91264">
        <ele>1177.8</ele>
        <time>2013-10-30T09:24:14Z</time>
      </trkpt>
      <trkpt lat="45.35848" lon="5.91254">
        <ele>1182.1</ele>
        <time>2013-10-30T09:24:47Z</time>
      </trkpt>
      <trkpt lat="45.35859" lon="5.9125">
        <ele>1183.4</ele>
        <time>2013-10-30T09:25:02Z</time>
      </trkpt>
      <trkpt lat="45.35869" lon="5.9125">
        <ele>1184.4</ele>
        <time>2013-10-30T09:25:19Z</time>
      </trkpt>
      <trkpt lat="45.35876" lon="5.91244">
        <ele>1188.8</ele>
        <time>2013-10-30T09:25:33Z</time>
      </trkpt>
      <trkpt lat="45.35881" lon="5.91233">
        <ele>1190.5</ele>
        <time>2013-10-30T09:25:49Z</time>
      </trkpt>
      <trkpt lat="45.35891" lon="5.9123">
        <ele>1191.6</ele>
        <time>2013-10-30T09:26:13Z</time>
      </trkpt>
      <trkpt lat="45.35899" lon="5.91225">
        <ele>1194.4</ele>
        <time>2013-10-30T09:26:31Z</time>
      </trkpt>
      <trkpt lat="45.35907" lon="5.91222">
        <ele>1197.7</ele>
        <time>2013-10-30T09:26:44Z</time>
      </trkpt>
      <trkpt lat="45.35913" lon="5.91214">
        <ele>1203.7</ele>
        <time>2013-10-30T09:27:03Z</time>
      </trkpt>
      <trkpt lat="45.35919" lon="5.91204">
        <ele>1202.6</ele>
        <time>2013-10-30T09:27:26Z</time>
      </trkpt>
      <trkpt lat="45.35927" lon="5.91195">
        <ele>1205.3</ele>
        <time>2013-10-30T09:27:41Z</time>
      </trkpt>
      <trkpt lat="45.35933" lon="5.91185">
        <ele>1206.9</ele>
        <time>2013-10-30T09:28:05Z</time>
      </trkpt>
      <trkpt lat="45.35942" lon="5.91183">
        <ele>1207.5</ele>
        <time>2013-10-30T09:28:19Z</time>
      </trkpt>
      <trkpt lat="45.35948" lon="5.91174">
        <ele>1208.1</ele>
        <time>2013-10-30T09:28:36Z</time>
      </trkpt>
      <trkpt lat="45.35956" lon="5.91166">
        <ele>1209.6</ele>
        <time>2013-10-30T09:28:50Z</time>
      </trkpt>
      <trkpt lat="45.35963" lon="5.91157">
        <ele>1211.6</ele>
        <time>2013-10-30T09:29:09Z</time>
      </trkpt>
      <trkpt lat="45.35971" lon="5.91153">
        <ele>1215.9</ele>
        <time>2013-10-30T09:29:34Z</time>
      </trkpt>
      <trkpt lat="45.35966" lon="5.91147">
        <ele>1223.6</ele>
        <time>2013-10-30T09:30:05Z</time>
      </trkpt>
      <trkpt lat="45.35961" lon="5.91139">
        <ele>1227.9</ele>
        <time>2013-10-30T09:30:21Z</time>
      </trkpt>
      <trkpt lat="45.35952" lon="5.91137">
        <ele>1231.4</ele>
        <time>2013-10-30T09:30:40Z</time>
      </trkpt>
      <trkpt lat="45.35943" lon="5.91134">
        <ele>1234.6</ele>
        <time>2013-10-30T09:30:57Z</time>
      </trkpt>
      <trkpt lat="45.35934" lon="5.91138">
        <ele>1236.8</ele>
        <time>2013-10-30T09:31:11Z</time>
      </trkpt>
      <trkpt lat="45.35925" lon="5.91135">
        <ele>1237.3</ele>
        <time>2013-10-30T09:31:31Z</time>
      </trkpt>
      <trkpt lat="45.35916" lon="5.91138">
        <ele>1236.2</ele>
        <time>2013-10-30T09:31:45Z</time>
      </trkpt>
      <trkpt lat="45.35907" lon="5.91136">
        <ele>1237.4</ele>
        <time>2013-10-30T09:32:03Z</time>
      </trkpt>
      <trkpt lat="45.35902" lon="5.91126">
        <ele>1234</ele>
        <time>2013-10-30T09:32:20Z</time>
      </trkpt>
      <trkpt lat="45.35893" lon="5.9112">
        <ele>1236.3</ele>
        <time>2013-10-30T09:32:35Z</time>
      </trkpt>
      <trkpt lat="45.35888" lon="5.91109">
        <ele>1236.9</ele>
        <time>2013-10-30T09:32:56Z</time>
      </trkpt>
      <trkpt lat="45.3588" lon="5.91103">
        <ele>1239.5</ele>
        <time>2013-10-30T09:33:09Z</time>
      </trkpt>
      <trkpt lat="45.35875" lon="5.91095">
        <ele>1244.3</ele>
        <time>2013-10-30T09:33:29Z</time>
      </trkpt>
      <trkpt lat="45.35867" lon="5.91089">
        <ele>1247.8</ele>
        <time>2013-10-30T09:33:45Z</time>
      </trkpt>
      <trkpt lat="45.35861" lon="5.91081">
        <ele>1251.6</ele>
        <time>2013-10-30T09:34:01Z</time>
      </trkpt>
      <trkpt lat="45.35858" lon="5.91068">
        <ele>1253.7</ele>
        <time>2013-10-30T09:34:27Z</time>
      </trkpt>
      <trkpt lat="45.35852" lon="5.91059">
        <ele>1256.4</ele>
        <time>2013-10-30T09:34:44Z</time>
      </trkpt>
      <trkpt lat="45.35848" lon="5.91048">
        <ele>1259.9</ele>
        <time>2013-10-30T09:35:03Z</time>
      </trkpt>
      <trkpt lat="45.35846" lon="5.91035">
        <ele>1262.2</ele>
        <time>2013-10-30T09:35:22Z</time>
      </trkpt>
      <trkpt lat="45.35843" lon="5.91023">
        <ele>1264.5</ele>
        <time>2013-10-30T09:35:43Z</time>
      </trkpt>
      <trkpt lat="45.35838" lon="5.91013">
        <ele>1267.9</ele>
        <time>2013-10-30T09:35:59Z</time>
      </trkpt>
      <trkpt lat="45.35836" lon="5.91">
        <ele>1269.3</ele>
        <time>2013-10-30T09:36:12Z</time>
      </trkpt>
      <trkpt lat="45.35837" lon="5.90988">
        <ele>1272.4</ele>
        <time>2013-10-30T09:36:30Z</time>
      </trkpt>
      <trkpt lat="45.35836" lon="5.90975">
        <ele>1275.9</ele>
        <time>2013-10-30T09:36:52Z</time>
      </trkpt>
      <trkpt lat="45.35844" lon="5.90971">
        <ele>1278.9</ele>
        <time>2013-10-30T09:37:12Z</time>
      </trkpt>
      <trkpt lat="45.35841" lon="5.90958">
        <ele>1280</ele>
        <time>2013-10-30T09:37:38Z</time>
      </trkpt>
      <trkpt lat="45.35841" lon="5.90945">
        <ele>1281</ele>
        <time>2013-10-30T09:37:52Z</time>
      </trkpt>
      <trkpt lat="45.35835" lon="5.90937">
        <ele>1285.4</ele>
        <time>2013-10-30T09:38:15Z</time>
      </trkpt>
      <trkpt lat="45.35828" lon="5.90928">
        <ele>1288.4</ele>
        <time>2013-10-30T09:38:30Z</time>
      </trkpt>
      <trkpt lat="45.3582" lon="5.90922">
        <ele>1291.1</ele>
        <time>2013-10-30T09:38:44Z</time>
      </trkpt>
      <trkpt lat="45.35814" lon="5.90911">
        <ele>1292.2</ele>
        <time>2013-10-30T09:39:08Z</time>
      </trkpt>
      <trkpt lat="45.35811" lon="5.90898">
        <ele>1289.8</ele>
        <time>2013-10-30T09:39:20Z</time>
      </trkpt>
      <trkpt lat="45.35808" lon="5.90887">
        <ele>1293.1</ele>
        <time>2013-10-30T09:39:37Z</time>
      </trkpt>
      <trkpt lat="45.35805" lon="5.90875">
        <ele>1294.5</ele>
        <time>2013-10-30T09:39:57Z</time>
      </trkpt>
      <trkpt lat="45.35804" lon="5.90864">
        <ele>1299.5</ele>
        <time>2013-10-30T09:40:22Z</time>
      </trkpt>
      <trkpt lat="45.35805" lon="5.90851">
        <ele>1302.1</ele>
        <time>2013-10-30T09:40:44Z</time>
      </trkpt>
      <trkpt lat="45.35809" lon="5.90838">
        <ele>1303.9</ele>
        <time>2013-10-30T09:41:05Z</time>
      </trkpt>
      <trkpt lat="45.35807" lon="5.90827">
        <ele>1308.7</ele>
        <time>2013-10-30T09:41:31Z</time>
      </trkpt>
      <trkpt lat="45.35807" lon="5.90817">
        <ele>1315</ele>
        <time>2013-10-30T09:41:57Z</time>
      </trkpt>
      <trkpt lat="45.35808" lon="5.90806">
        <ele>1319.3</ele>
        <time>2013-10-30T09:42:19Z</time>
      </trkpt>
      <trkpt lat="45.3581" lon="5.90794">
        <ele>1322.4</ele>
        <time>2013-10-30T09:42:43Z</time>
      </trkpt>
      <trkpt lat="45.3581" lon="5.90781">
        <ele>1325.1</ele>
        <time>2013-10-30T09:43:23Z</time>
      </trkpt>
      <trkpt lat="45.35804" lon="5.90772">
        <ele>1328.5</ele>
        <time>2013-10-30T09:43:40Z</time>
      </trkpt>
      <trkpt lat="45.35797" lon="5.90765">
        <ele>1330.3</ele>
        <time>2013-10-30T09:44:03Z</time>
      </trkpt>
      <trkpt lat="45.35789" lon="5.90757">
        <ele>1330.8</ele>
        <time>2013-10-30T09:44:21Z</time>
      </trkpt>
      <trkpt lat="45.35782" lon="5.90751">
        <ele>1330.6</ele>
        <time>2013-10-30T09:44:34Z</time>
      </trkpt>
      <trkpt lat="45.35775" lon="5.90743">
        <ele>1334.2</ele>
        <time>2013-10-30T09:44:54Z</time>
      </trkpt>
      <trkpt lat="45.35769" lon="5.90733">
        <ele>1335.1</ele>
        <time>2013-10-30T09:45:12Z</time>
      </trkpt>
      <trkpt lat="45.3576" lon="5.9073">
        <ele>1337.1</ele>
        <time>2013-10-30T09:45:31Z</time>
      </trkpt>
      <trkpt lat="45.35755" lon="5.90719">
        <ele>1337.4</ele>
        <time>2013-10-30T09:45:46Z</time>
      </trkpt>
      <trkpt lat="45.35751" lon="5.90707">
        <ele>1336</ele>
        <time>2013-10-30T09:46:01Z</time>
      </trkpt>
      <trkpt lat="45.35745" lon="5.90699">
        <ele>1339.7</ele>
        <time>2013-10-30T09:46:19Z</time>
      </trkpt>
      <trkpt lat="45.3574" lon="5.90688">
        <ele>1341.1</ele>
        <time>2013-10-30T09:46:32Z</time>
      </trkpt>
      <trkpt lat="45.35734" lon="5.90678">
        <ele>1345.4</ele>
        <time>2013-10-30T09:46:51Z</time>
      </trkpt>
      <trkpt lat="45.3573" lon="5.90668">
        <ele>1350.4</ele>
        <time>2013-10-30T09:47:08Z</time>
      </trkpt>
      <trkpt lat="45.35727" lon="5.90656">
        <ele>1353</ele>
        <time>2013-10-30T09:47:22Z</time>
      </trkpt>
      <trkpt lat="45.35722" lon="5.90644">
        <ele>1355.2</ele>
        <time>2013-10-30T09:47:35Z</time>
      </trkpt>
      <trkpt lat="45.3572" lon="5.90631">
        <ele>1358.8</ele>
        <time>2013-10-30T09:47:54Z</time>
      </trkpt>
      <trkpt lat="45.35716" lon="5.9062">
        <ele>1360.7</ele>
        <time>2013-10-30T09:48:09Z</time>
      </trkpt>
      <trkpt lat="45.35712" lon="5.90608">
        <ele>1363.2</ele>
        <time>2013-10-30T09:48:29Z</time>
      </trkpt>
      <trkpt lat="45.35705" lon="5.906">
        <ele>1365</ele>
        <time>2013-10-30T09:48:44Z</time>
      </trkpt>
      <trkpt lat="45.35698" lon="5.90594">
        <ele>1368.7</ele>
        <time>2013-10-30T09:49:00Z</time>
      </trkpt>
      <trkpt lat="45.35692" lon="5.90585">
        <ele>1372.9</ele>
        <time>2013-10-30T09:49:24Z</time>
      </trkpt>
      <trkpt lat="45.35686" lon="5.90577">
        <ele>1374.1</ele>
        <time>2013-10-30T09:49:41Z</time>
      </trkpt>
      <trkpt lat="45.35678" lon="5.90568">
        <ele>1375</ele>
        <time>2013-10-30T09:49:52Z</time>
      </trkpt>
      <trkpt lat="45.35674" lon="5.90556">
        <ele>1375.8</ele>
        <time>2013-10-30T09:50:10Z</time>
      </trkpt>
      <trkpt lat="45.35668" lon="5.90547">
        <ele>1376.9</ele>
        <time>2013-10-30T09:50:21Z</time>
      </trkpt>
      <trkpt lat="45.35665" lon="5.90536">
        <ele>1382.2</ele>
        <time>2013-10-30T09:50:40Z</time>
      </trkpt>
      <trkpt lat="45.35661" lon="5.90525">
        <ele>1383</ele>
        <time>2013-10-30T09:50:55Z</time>
      </trkpt>
      <trkpt lat="45.35657" lon="5.90514">
        <ele>1386.1</ele>
        <time>2013-10-30T09:51:10Z</time>
      </trkpt>
      <trkpt lat="45.35652" lon="5.90503">
        <ele>1389.4</ele>
        <time>2013-10-30T09:51:25Z</time>
      </trkpt>
      <trkpt lat="45.35648" lon="5.90491">
        <ele>1391.1</ele>
        <time>2013-10-30T09:51:37Z</time>
      </trkpt>
      <trkpt lat="45.35648" lon="5.90478">
        <ele>1391.9</ele>
        <time>2013-10-30T09:51:52Z</time>
      </trkpt>
      <trkpt lat="45.35644" lon="5.90467">
        <ele>1395.4</ele>
        <time>2013-10-30T09:52:10Z</time>
      </trkpt>
      <trkpt lat="45.35641" lon="5.90456">
        <ele>1399.9</ele>
        <time>2013-10-30T09:52:32Z</time>
      </trkpt>
      <trkpt lat="45.35636" lon="5.90445">
        <ele>1401.9</ele>
        <time>2013-10-30T09:52:49Z</time>
      </trkpt>
      <trkpt lat="45.35631" lon="5.90434">
        <ele>1403.1</ele>
        <time>2013-10-30T09:52:58Z</time>
      </trkpt>
      <trkpt lat="45.35625" lon="5.90424">
        <ele>1404.1</ele>
        <time>2013-10-30T09:53:08Z</time>
      </trkpt>
      <trkpt lat="45.35619" lon="5.90415">
        <ele>1404.6</ele>
        <time>2013-10-30T09:53:27Z</time>
      </trkpt>
      <trkpt lat="45.35612" lon="5.90404">
        <ele>1407.7</ele>
        <time>2013-10-30T09:53:45Z</time>
      </trkpt>
      <trkpt lat="45.35604" lon="5.90399">
        <ele>1410.1</ele>
        <time>2013-10-30T09:54:02Z</time>
      </trkpt>
      <trkpt lat="45.35596" lon="5.90392">
        <ele>1412.1</ele>
        <time>2013-10-30T09:54:14Z</time>
      </trkpt>
      <trkpt lat="45.35593" lon="5.9038">
        <ele>1410.8</ele>
        <time>2013-10-30T09:55:08Z</time>
      </trkpt>
      <trkpt lat="45.35586" lon="5.90374">
        <ele>1416.9</ele>
        <time>2013-10-30T09:55:29Z</time>
      </trkpt>
      <trkpt lat="45.35577" lon="5.9037">
        <ele>1418.6</ele>
        <time>2013-10-30T09:55:44Z</time>
      </trkpt>
      <trkpt lat="45.35569" lon="5.90363">
        <ele>1420.6</ele>
        <time>2013-10-30T09:56:01Z</time>
      </trkpt>
      <trkpt lat="45.35563" lon="5.90355">
        <ele>1425</ele>
        <time>2013-10-30T09:56:15Z</time>
      </trkpt>
      <trkpt lat="45.35555" lon="5.90352">
        <ele>1430.3</ele>
        <time>2013-10-30T09:56:26Z</time>
      </trkpt>
      <trkpt lat="45.35546" lon="5.90347">
        <ele>1434.3</ele>
        <time>2013-10-30T09:56:42Z</time>
      </trkpt>
      <trkpt lat="45.35539" lon="5.90339">
        <ele>1431.8</ele>
        <time>2013-10-30T09:56:53Z</time>
      </trkpt>
      <trkpt lat="45.3553" lon="5.90336">
        <ele>1434.2</ele>
        <time>2013-10-30T09:57:08Z</time>
      </trkpt>
      <trkpt lat="45.35527" lon="5.90324">
        <ele>1436.7</ele>
        <time>2013-10-30T09:57:35Z</time>
      </trkpt>
      <trkpt lat="45.35523" lon="5.90314">
        <ele>1440.5</ele>
        <time>2013-10-30T09:57:55Z</time>
      </trkpt>
      <trkpt lat="45.35522" lon="5.90301">
        <ele>1443.8</ele>
        <time>2013-10-30T09:58:10Z</time>
      </trkpt>
      <trkpt lat="45.35515" lon="5.90292">
        <ele>1445.5</ele>
        <time>2013-10-30T09:58:24Z</time>
      </trkpt>
      <trkpt lat="45.35508" lon="5.90285">
        <ele>1447.9</ele>
        <time>2013-10-30T09:58:52Z</time>
      </trkpt>
      <trkpt lat="45.355" lon="5.90289">
        <ele>1453.3</ele>
        <time>2013-10-30T09:59:11Z</time>
      </trkpt>
      <trkpt lat="45.35492" lon="5.90294">
        <ele>1455.2</ele>
        <time>2013-10-30T09:59:30Z</time>
      </trkpt>
      <trkpt lat="45.35484" lon="5.903">
        <ele>1457</ele>
        <time>2013-10-30T09:59:44Z</time>
      </trkpt>
      <trkpt lat="45.35477" lon="5.9029">
        <ele>1457.9</ele>
        <time>2013-10-30T10:00:03Z</time>
      </trkpt>
      <trkpt lat="45.35473" lon="5.90279">
        <ele>1460.6</ele>
        <time>2013-10-30T10:00:13Z</time>
      </trkpt>
      <trkpt lat="45.35476" lon="5.90266">
        <ele>1462.7</ele>
        <time>2013-10-30T10:00:32Z</time>
      </trkpt>
      <trkpt lat="45.35471" lon="5.90255">
        <ele>1464.4</ele>
        <time>2013-10-30T10:00:48Z</time>
      </trkpt>
      <trkpt lat="45.35473" lon="5.90242">
        <ele>1465.9</ele>
        <time>2013-10-30T10:01:21Z</time>
      </trkpt>
      <trkpt lat="45.35474" lon="5.90229">
        <ele>1466.6</ele>
        <time>2013-10-30T10:01:35Z</time>
      </trkpt>
      <trkpt lat="45.35477" lon="5.90216">
        <ele>1466.8</ele>
        <time>2013-10-30T10:11:10Z</time>
      </trkpt>
      <trkpt lat="45.35481" lon="5.90206">
        <ele>1466.6</ele>
        <time>2013-10-30T10:11:24Z</time>
      </trkpt>
      <trkpt lat="45.35487" lon="5.90194">
        <ele>1466.3</ele>
        <time>2013-10-30T10:11:39Z</time>
      </trkpt>
      <trkpt lat="45.35491" lon="5.90182">
        <ele>1466.3</ele>
        <time>2013-10-30T10:11:53Z</time>
      </trkpt>
      <trkpt lat="45.35495" lon="5.9017">
        <ele>1467.5</ele>
        <time>2013-10-30T10:12:07Z</time>
      </trkpt>
      <trkpt lat="45.35502" lon="5.90163">
        <ele>1469.3</ele>
        <time>2013-10-30T10:12:23Z</time>
      </trkpt>
      <trkpt lat="45.35512" lon="5.90162">
        <ele>1471.9</ele>
        <time>2013-10-30T10:12:42Z</time>
      </trkpt>
      <trkpt lat="45.35521" lon="5.90162">
        <ele>1473.2</ele>
        <time>2013-10-30T10:12:57Z</time>
      </trkpt>
      <trkpt lat="45.3553" lon="5.90165">
        <ele>1474.2</ele>
        <time>2013-10-30T10:13:11Z</time>
      </trkpt>
      <trkpt lat="45.35539" lon="5.90166">
        <ele>1476.4</ele>
        <time>2013-10-30T10:13:29Z</time>
      </trkpt>
      <trkpt lat="45.35547" lon="5.90165">
        <ele>1480.3</ele>
        <time>2013-10-30T10:13:49Z</time>
      </trkpt>
      <trkpt lat="45.35553" lon="5.90165">
        <ele>1487.8</ele>
        <time>2013-10-30T10:14:09Z</time>
      </trkpt>
      <trkpt lat="45.35562" lon="5.90165">
        <ele>1488.4</ele>
        <time>2013-10-30T10:14:21Z</time>
      </trkpt>
      <trkpt lat="45.35571" lon="5.90166">
        <ele>1493</ele>
        <time>2013-10-30T10:14:39Z</time>
      </trkpt>
      <trkpt lat="45.3558" lon="5.90168">
        <ele>1497.1</ele>
        <time>2013-10-30T10:14:56Z</time>
      </trkpt>
      <trkpt lat="45.35589" lon="5.90168">
        <ele>1499.4</ele>
        <time>2013-10-30T10:15:17Z</time>
      </trkpt>
      <trkpt lat="45.35598" lon="5.90167">
        <ele>1500.4</ele>
        <time>2013-10-30T10:15:34Z</time>
      </trkpt>
      <trkpt lat="45.35607" lon="5.90167">
        <ele>1502.9</ele>
        <time>2013-10-30T10:15:51Z</time>
      </trkpt>
      <trkpt lat="45.35616" lon="5.90164">
        <ele>1505.6</ele>
        <time>2013-10-30T10:16:14Z</time>
      </trkpt>
      <trkpt lat="45.35626" lon="5.90164">
        <ele>1504.5</ele>
        <time>2013-10-30T10:16:29Z</time>
      </trkpt>
      <trkpt lat="45.35635" lon="5.90163">
        <ele>1507.5</ele>
        <time>2013-10-30T10:16:49Z</time>
      </trkpt>
      <trkpt lat="45.35643" lon="5.9016">
        <ele>1512</ele>
        <time>2013-10-30T10:17:15Z</time>
      </trkpt>
      <trkpt lat="45.35651" lon="5.90162">
        <ele>1514.2</ele>
        <time>2013-10-30T10:17:32Z</time>
      </trkpt>
      <trkpt lat="45.35659" lon="5.90159">
        <ele>1518.9</ele>
        <time>2013-10-30T10:17:52Z</time>
      </trkpt>
      <trkpt lat="45.35668" lon="5.90159">
        <ele>1521.7</ele>
        <time>2013-10-30T10:18:13Z</time>
      </trkpt>
      <trkpt lat="45.35677" lon="5.90157">
        <ele>1523.8</ele>
        <time>2013-10-30T10:18:34Z</time>
      </trkpt>
      <trkpt lat="45.35682" lon="5.90147">
        <ele>1526.9</ele>
        <time>2013-10-30T10:19:01Z</time>
      </trkpt>
      <trkpt lat="45.35677" lon="5.90138">
        <ele>1531.9</ele>
        <time>2013-10-30T10:19:28Z</time>
      </trkpt>
      <trkpt lat="45.35671" lon="5.90129">
        <ele>1537.2</ele>
        <time>2013-10-30T10:19:48Z</time>
      </trkpt>
      <trkpt lat="45.35666" lon="5.9012">
        <ele>1540.2</ele>
        <time>2013-10-30T10:20:10Z</time>
      </trkpt>
      <trkpt lat="45.35663" lon="5.90107">
        <ele>1540</ele>
        <time>2013-10-30T10:20:29Z</time>
      </trkpt>
      <trkpt lat="45.35657" lon="5.90097">
        <ele>1544</ele>
        <time>2013-10-30T10:20:51Z</time>
      </trkpt>
      <trkpt lat="45.35651" lon="5.9009">
        <ele>1548.2</ele>
        <time>2013-10-30T10:21:05Z</time>
      </trkpt>
      <trkpt lat="45.35645" lon="5.90078">
        <ele>1549.4</ele>
        <time>2013-10-30T10:21:22Z</time>
      </trkpt>
      <trkpt lat="45.35639" lon="5.90068">
        <ele>1549.7</ele>
        <time>2013-10-30T10:21:37Z</time>
      </trkpt>
      <trkpt lat="45.35634" lon="5.90058">
        <ele>1551</ele>
        <time>2013-10-30T10:21:53Z</time>
      </trkpt>
      <trkpt lat="45.3563" lon="5.90046">
        <ele>1552.5</ele>
        <time>2013-10-30T10:22:07Z</time>
      </trkpt>
      <trkpt lat="45.35626" lon="5.90034">
        <ele>1555.2</ele>
        <time>2013-10-30T10:22:23Z</time>
      </trkpt>
      <trkpt lat="45.35623" lon="5.90022">
        <ele>1556.9</ele>
        <time>2013-10-30T10:22:38Z</time>
      </trkpt>
      <trkpt lat="45.35621" lon="5.9001">
        <ele>1559.6</ele>
        <time>2013-10-30T10:22:55Z</time>
      </trkpt>
      <trkpt lat="45.35616" lon="5.89999">
        <ele>1563.9</ele>
        <time>2013-10-30T10:23:09Z</time>
      </trkpt>
      <trkpt lat="45.35618" lon="5.89986">
        <ele>1566.4</ele>
        <time>2013-10-30T10:23:28Z</time>
      </trkpt>
      <trkpt lat="45.35618" lon="5.89974">
        <ele>1569.4</ele>
        <time>2013-10-30T10:23:46Z</time>
      </trkpt>
      <trkpt lat="45.35623" lon="5.89966">
        <ele>1573.9</ele>
        <time>2013-10-30T10:24:08Z</time>
      </trkpt>
      <trkpt lat="45.35625" lon="5.89954">
        <ele>1578.1</ele>
        <time>2013-10-30T10:24:32Z</time>
      </trkpt>
      <trkpt lat="45.35629" lon="5.89943">
        <ele>1580.9</ele>
        <time>2013-10-30T10:24:54Z</time>
      </trkpt>
      <trkpt lat="45.35629" lon="5.89933">
        <ele>1587.6</ele>
        <time>2013-10-30T10:25:09Z</time>
      </trkpt>
      <trkpt lat="45.35629" lon="5.89923">
        <ele>1594.2</ele>
        <time>2013-10-30T10:25:28Z</time>
      </trkpt>
      <trkpt lat="45.35631" lon="5.89915">
        <ele>1602.3</ele>
        <time>2013-10-30T10:25:54Z</time>
      </trkpt>
      <trkpt lat="45.35633" lon="5.89904">
        <ele>1606.9</ele>
        <time>2013-10-30T10:26:16Z</time>
      </trkpt>
      <trkpt lat="45.3563" lon="5.89891">
        <ele>1607.4</ele>
        <time>2013-10-30T10:26:31Z</time>
      </trkpt>
      <trkpt lat="45.35629" lon="5.89878">
        <ele>1608.8</ele>
        <time>2013-10-30T10:26:48Z</time>
      </trkpt>
      <trkpt lat="45.35626" lon="5.89866">
        <ele>1611</ele>
        <time>2013-10-30T10:27:04Z</time>
      </trkpt>
      <trkpt lat="45.35623" lon="5.89854">
        <ele>1611.9</ele>
        <time>2013-10-30T10:27:18Z</time>
      </trkpt>
      <trkpt lat="45.35618" lon="5.89842">
        <ele>1613.4</ele>
        <time>2013-10-30T10:27:32Z</time>
      </trkpt>
      <trkpt lat="45.35627" lon="5.89842">
        <ele>1616.8</ele>
        <time>2013-10-30T10:27:59Z</time>
      </trkpt>
      <trkpt lat="45.35629" lon="5.89831">
        <ele>1621.9</ele>
        <time>2013-10-30T10:28:28Z</time>
      </trkpt>
      <trkpt lat="45.35627" lon="5.89819">
        <ele>1624.4</ele>
        <time>2013-10-30T10:28:54Z</time>
      </trkpt>
      <trkpt lat="45.35623" lon="5.89808">
        <ele>1626.6</ele>
        <time>2013-10-30T10:29:14Z</time>
      </trkpt>
      <trkpt lat="45.35617" lon="5.89798">
        <ele>1631.1</ele>
        <time>2013-10-30T10:29:27Z</time>
      </trkpt>
      <trkpt lat="45.35614" lon="5.89786">
        <ele>1633.6</ele>
        <time>2013-10-30T10:29:47Z</time>
      </trkpt>
      <trkpt lat="45.35615" lon="5.89774">
        <ele>1635.8</ele>
        <time>2013-10-30T10:30:07Z</time>
      </trkpt>
      <trkpt lat="45.35614" lon="5.89761">
        <ele>1638.3</ele>
        <time>2013-10-30T10:30:27Z</time>
      </trkpt>
      <trkpt lat="45.35615" lon="5.89748">
        <ele>1641</ele>
        <time>2013-10-30T10:30:47Z</time>
      </trkpt>
      <trkpt lat="45.35612" lon="5.89737">
        <ele>1643.8</ele>
        <time>2013-10-30T10:31:09Z</time>
      </trkpt>
      <trkpt lat="45.35608" lon="5.89726">
        <ele>1647.2</ele>
        <time>2013-10-30T10:31:36Z</time>
      </trkpt>
      <trkpt lat="45.35608" lon="5.89714">
        <ele>1650.4</ele>
        <time>2013-10-30T10:32:03Z</time>
      </trkpt>
      <trkpt lat="45.35612" lon="5.89703">
        <ele>1653.1</ele>
        <time>2013-10-30T10:32:39Z</time>
      </trkpt>
      <trkpt lat="45.35609" lon="5.89691">
        <ele>1656.1</ele>
        <time>2013-10-30T10:33:03Z</time>
      </trkpt>
      <trkpt lat="45.35615" lon="5.89682">
        <ele>1656.2</ele>
        <time>2013-10-30T10:35:00Z</time>
      </trkpt>
      <trkpt lat="45.35618" lon="5.8967">
        <ele>1658</ele>
        <time>2013-10-30T10:35:17Z</time>
      </trkpt>
      <trkpt lat="45.35616" lon="5.89657">
        <ele>1661.2</ele>
        <time>2013-10-30T10:35:40Z</time>
      </trkpt>
      <trkpt lat="45.35616" lon="5.89645">
        <ele>1663.2</ele>
        <time>2013-10-30T10:36:09Z</time>
      </trkpt>
      <trkpt lat="45.35625" lon="5.89646">
        <ele>1664.8</ele>
        <time>2013-10-30T10:36:40Z</time>
      </trkpt>
      <trkpt lat="45.35633" lon="5.89653">
        <ele>1666.2</ele>
        <time>2013-10-30T10:37:05Z</time>
      </trkpt>
      <trkpt lat="45.35638" lon="5.89662">
        <ele>1671.4</ele>
        <time>2013-10-30T10:37:34Z</time>
      </trkpt>
      <trkpt lat="45.35645" lon="5.89657">
        <ele>1676.2</ele>
        <time>2013-10-30T10:38:16Z</time>
      </trkpt>
      <trkpt lat="45.35647" lon="5.89648">
        <ele>1683.2</ele>
        <time>2013-10-30T10:39:11Z</time>
      </trkpt>
      <trkpt lat="45.35643" lon="5.89637">
        <ele>1687.1</ele>
        <time>2013-10-30T10:39:36Z</time>
      </trkpt>
      <trkpt lat="45.35651" lon="5.89635">
        <ele>1690.3</ele>
        <time>2013-10-30T10:40:00Z</time>
      </trkpt>
      <trkpt lat="45.35653" lon="5.89624">
        <ele>1694.9</ele>
        <time>2013-10-30T10:40:31Z</time>
      </trkpt>
      <trkpt lat="45.35648" lon="5.89614">
        <ele>1696.8</ele>
        <time>2013-10-30T10:40:50Z</time>
      </trkpt>
      <trkpt lat="45.35646" lon="5.89601">
        <ele>1699.3</ele>
        <time>2013-10-30T10:41:09Z</time>
      </trkpt>
      <trkpt lat="45.35639" lon="5.89593">
        <ele>1701.4</ele>
        <time>2013-10-30T10:41:31Z</time>
      </trkpt>
      <trkpt lat="45.35634" lon="5.89583">
        <ele>1704.2</ele>
        <time>2013-10-30T10:41:56Z</time>
      </trkpt>
      <trkpt lat="45.35643" lon="5.89578">
        <ele>1706.8</ele>
        <time>2013-10-30T10:42:25Z</time>
      </trkpt>
      <trkpt lat="45.35652" lon="5.89579">
        <ele>1709.5</ele>
        <time>2013-10-30T10:42:46Z</time>
      </trkpt>
      <trkpt lat="45.35661" lon="5.89581">
        <ele>1711.7</ele>
        <time>2013-10-30T10:43:09Z</time>
      </trkpt>
      <trkpt lat="45.35661" lon="5.89569">
        <ele>1715.5</ele>
        <time>2013-10-30T10:43:42Z</time>
      </trkpt>
      <trkpt lat="45.35656" lon="5.89558">
        <ele>1718</ele>
        <time>2013-10-30T10:44:02Z</time>
      </trkpt>
      <trkpt lat="45.35663" lon="5.89554">
        <ele>1722.8</ele>
        <time>2013-10-30T10:44:42Z</time>
      </trkpt>
      <trkpt lat="45.35672" lon="5.89558">
        <ele>1725.4</ele>
        <time>2013-10-30T10:45:04Z</time>
      </trkpt>
      <trkpt lat="45.35679" lon="5.89562">
        <ele>1730.5</ele>
        <time>2013-10-30T10:45:39Z</time>
      </trkpt>
      <trkpt lat="45.35683" lon="5.89572">
        <ele>1734.4</ele>
        <time>2013-10-30T10:46:04Z</time>
      </trkpt>
      <trkpt lat="45.35691" lon="5.89575">
        <ele>1739.4</ele>
        <time>2013-10-30T10:46:33Z</time>
      </trkpt>
      <trkpt lat="45.35695" lon="5.89565">
        <ele>1743.1</ele>
        <time>2013-10-30T10:47:10Z</time>
      </trkpt>
      <trkpt lat="45.35692" lon="5.89553">
        <ele>1745.2</ele>
        <time>2013-10-30T10:47:28Z</time>
      </trkpt>
      <trkpt lat="45.35685" lon="5.89545">
        <ele>1746.2</ele>
        <time>2013-10-30T10:47:44Z</time>
      </trkpt>
      <trkpt lat="45.35693" lon="5.89544">
        <ele>1749.9</ele>
        <time>2013-10-30T10:48:17Z</time>
      </trkpt>
      <trkpt lat="45.35702" lon="5.89548">
        <ele>1752.2</ele>
        <time>2013-10-30T10:48:38Z</time>
      </trkpt>
      <trkpt lat="45.35706" lon="5.89558">
        <ele>1756.4</ele>
        <time>2013-10-30T10:49:06Z</time>
      </trkpt>
      <trkpt lat="45.35708" lon="5.89547">
        <ele>1760.6</ele>
        <time>2013-10-30T10:49:51Z</time>
      </trkpt>
      <trkpt lat="45.35707" lon="5.89534">
        <ele>1762.4</ele>
        <time>2013-10-30T10:50:12Z</time>
      </trkpt>
      <trkpt lat="45.35715" lon="5.89534">
        <ele>1767.4</ele>
        <time>2013-10-30T10:50:41Z</time>
      </trkpt>
      <trkpt lat="45.35713" lon="5.89548">
        <ele>1769</ele>
        <time>2013-10-30T10:50:51Z</time>
      </trkpt>
      <trkpt lat="45.3571" lon="5.89561">
        <ele>1771.1</ele>
        <time>2013-10-30T10:51:06Z</time>
      </trkpt>
      <trkpt lat="45.35718" lon="5.89566">
        <ele>1774.4</ele>
        <time>2013-10-30T10:51:21Z</time>
      </trkpt>
      <trkpt lat="45.35725" lon="5.89574">
        <ele>1776.2</ele>
        <time>2013-10-30T10:51:39Z</time>
      </trkpt>
      <trkpt lat="45.35733" lon="5.89571">
        <ele>1774.2</ele>
        <time>2013-10-30T10:52:01Z</time>
      </trkpt>
      <trkpt lat="45.35733" lon="5.89585">
        <ele>1777.5</ele>
        <time>2013-10-30T10:53:04Z</time>
      </trkpt>
      <trkpt lat="45.35739" lon="5.89595">
        <ele>1780.2</ele>
        <time>2013-10-30T10:53:40Z</time>
      </trkpt>
      <trkpt lat="45.35747" lon="5.89602">
        <ele>1782.6</ele>
        <time>2013-10-30T10:54:14Z</time>
      </trkpt>
      <trkpt lat="45.35748" lon="5.89615">
        <ele>1784.2</ele>
        <time>2013-10-30T10:54:29Z</time>
      </trkpt>
      <trkpt lat="45.35748" lon="5.89628">
        <ele>1786.2</ele>
        <time>2013-10-30T10:54:43Z</time>
      </trkpt>
      <trkpt lat="45.35751" lon="5.8964">
        <ele>1788.3</ele>
        <time>2013-10-30T10:54:57Z</time>
      </trkpt>
      <trkpt lat="45.35751" lon="5.89652">
        <ele>1790.8</ele>
        <time>2013-10-30T10:55:12Z</time>
      </trkpt>
      <trkpt lat="45.35751" lon="5.89666">
        <ele>1793.3</ele>
        <time>2013-10-30T10:55:30Z</time>
      </trkpt>
      <trkpt lat="45.35748" lon="5.89681">
        <ele>1793.1</ele>
        <time>2013-10-30T10:55:34Z</time>
      </trkpt>
      <trkpt lat="45.35748" lon="5.89694">
        <ele>1794.5</ele>
        <time>2013-10-30T10:55:41Z</time>
      </trkpt>
      <trkpt lat="45.35744" lon="5.89705">
        <ele>1796.8</ele>
        <time>2013-10-30T10:55:49Z</time>
      </trkpt>
      <trkpt lat="45.35739" lon="5.89716">
        <ele>1801</ele>
        <time>2013-10-30T10:56:53Z</time>
      </trkpt>
      <trkpt lat="45.35739" lon="5.89728">
        <ele>1805.1</ele>
        <time>2013-10-30T10:57:29Z</time>
      </trkpt>
      <trkpt lat="45.35736" lon="5.8974">
        <ele>1808.1</ele>
        <time>2013-10-30T10:57:39Z</time>
      </trkpt>
      <trkpt lat="45.35735" lon="5.89753">
        <ele>1808.8</ele>
        <time>2013-10-30T10:58:00Z</time>
      </trkpt>
      <trkpt lat="45.35737" lon="5.89765">
        <ele>1810.2</ele>
        <time>2013-10-30T10:58:10Z</time>
      </trkpt>
      <trkpt lat="45.35741" lon="5.89776">
        <ele>1810.6</ele>
        <time>2013-10-30T10:58:35Z</time>
      </trkpt>
      <trkpt lat="45.35748" lon="5.89785">
        <ele>1811.4</ele>
        <time>2013-10-30T10:58:45Z</time>
      </trkpt>
      <trkpt lat="45.35756" lon="5.89791">
        <ele>1812.9</ele>
        <time>2013-10-30T10:58:56Z</time>
      </trkpt>
      <trkpt lat="45.35763" lon="5.89799">
        <ele>1813.4</ele>
        <time>2013-10-30T10:59:08Z</time>
      </trkpt>
      <trkpt lat="45.35773" lon="5.89802">
        <ele>1811.9</ele>
        <time>2013-10-30T10:59:21Z</time>
      </trkpt>
      <trkpt lat="45.35782" lon="5.89798">
        <ele>1810.9</ele>
        <time>2013-10-30T10:59:46Z</time>
      </trkpt>
      <trkpt lat="45.35789" lon="5.8979">
        <ele>1809.9</ele>
        <time>2013-10-30T10:59:56Z</time>
      </trkpt>
      <trkpt lat="45.35793" lon="5.89778">
        <ele>1809.8</ele>
        <time>2013-10-30T11:00:07Z</time>
      </trkpt>
      <trkpt lat="45.358" lon="5.89769">
        <ele>1806.7</ele>
        <time>2013-10-30T11:00:17Z</time>
      </trkpt>
      <trkpt lat="45.35805" lon="5.89757">
        <ele>1807.5</ele>
        <time>2013-10-30T11:00:24Z</time>
      </trkpt>
      <trkpt lat="45.35811" lon="5.89748">
        <ele>1809.9</ele>
        <time>2013-10-30T11:00:32Z</time>
      </trkpt>
      <trkpt lat="45.3582" lon="5.8975">
        <ele>1812.9</ele>
        <time>2013-10-30T11:00:42Z</time>
      </trkpt>
      <trkpt lat="45.35818" lon="5.8974">
        <ele>1819.3</ele>
        <time>2013-10-30T11:02:40Z</time>
      </trkpt>
      <trkpt lat="45.35813" lon="5.89731">
        <ele>1821.5</ele>
        <time>2013-10-30T11:03:34Z</time>
      </trkpt>
      <trkpt lat="45.35808" lon="5.89742">
        <ele>1825.6</ele>
        <time>2013-10-30T11:03:51Z</time>
      </trkpt>
      <trkpt lat="45.35805" lon="5.89731">
        <ele>1830.6</ele>
        <time>2013-10-30T11:04:12Z</time>
      </trkpt>
      <trkpt lat="45.35809" lon="5.89721">
        <ele>1835.1</ele>
        <time>2013-10-30T11:04:51Z</time>
      </trkpt>
      <trkpt lat="45.35809" lon="5.89709">
        <ele>1838.8</ele>
        <time>2013-10-30T11:05:06Z</time>
      </trkpt>
      <trkpt lat="45.35809" lon="5.89697">
        <ele>1842.8</ele>
        <time>2013-10-30T11:05:22Z</time>
      </trkpt>
      <trkpt lat="45.35817" lon="5.89704">
        <ele>1842.5</ele>
        <time>2013-10-30T11:06:03Z</time>
      </trkpt>
      <trkpt lat="45.35823" lon="5.89712">
        <ele>1837.1</ele>
        <time>2013-10-30T11:06:20Z</time>
      </trkpt>
      <trkpt lat="45.35831" lon="5.89717">
        <ele>1836.1</ele>
        <time>2013-10-30T11:06:28Z</time>
      </trkpt>
      <trkpt lat="45.35838" lon="5.89726">
        <ele>1836</ele>
        <time>2013-10-30T11:06:41Z</time>
      </trkpt>
      <trkpt lat="45.35844" lon="5.89736">
        <ele>1834.8</ele>
        <time>2013-10-30T11:07:19Z</time>
      </trkpt>
      <trkpt lat="45.35839" lon="5.89726">
        <ele>1831.3</ele>
        <time>2013-10-30T11:11:33Z</time>
      </trkpt>
      <trkpt lat="45.35831" lon="5.89719">
        <ele>1829.8</ele>
        <time>2013-10-30T11:11:48Z</time>
      </trkpt>
      <trkpt lat="45.35823" lon="5.89713">
        <ele>1829.2</ele>
        <time>2013-10-30T11:12:01Z</time>
      </trkpt>
      <trkpt lat="45.35818" lon="5.89702">
        <ele>1828.6</ele>
        <time>2013-10-30T11:12:24Z</time>
      </trkpt>
      <trkpt lat="45.35822" lon="5.89691">
        <ele>1826</ele>
        <time>2013-10-30T11:12:53Z</time>
      </trkpt>
      <trkpt lat="45.35831" lon="5.8969">
        <ele>1824.9</ele>
        <time>2013-10-30T11:13:04Z</time>
      </trkpt>
      <trkpt lat="45.35822" lon="5.89687">
        <ele>1824.7</ele>
        <time>2013-10-30T11:13:29Z</time>
      </trkpt>
      <trkpt lat="45.35813" lon="5.89685">
        <ele>1827.5</ele>
        <time>2013-10-30T11:13:51Z</time>
      </trkpt>
      <trkpt lat="45.35805" lon="5.89685">
        <ele>1830.7</ele>
        <time>2013-10-30T11:14:11Z</time>
      </trkpt>
      <trkpt lat="45.35796" lon="5.89687">
        <ele>1834.7</ele>
        <time>2013-10-30T11:14:39Z</time>
      </trkpt>
      <trkpt lat="45.35791" lon="5.89696">
        <ele>1838.7</ele>
        <time>2013-10-30T11:15:05Z</time>
      </trkpt>
      <trkpt lat="45.35783" lon="5.89694">
        <ele>1843.8</ele>
        <time>2013-10-30T11:15:35Z</time>
      </trkpt>
      <trkpt lat="45.35775" lon="5.8969">
        <ele>1847.3</ele>
        <time>2013-10-30T11:16:05Z</time>
      </trkpt>
      <trkpt lat="45.35768" lon="5.8969">
        <ele>1853.8</ele>
        <time>2013-10-30T11:16:38Z</time>
      </trkpt>
      <trkpt lat="45.35763" lon="5.897">
        <ele>1858.6</ele>
        <time>2013-10-30T11:17:04Z</time>
      </trkpt>
      <trkpt lat="45.35762" lon="5.89712">
        <ele>1860.2</ele>
        <time>2013-10-30T11:18:46Z</time>
      </trkpt>
      <trkpt lat="45.35765" lon="5.89725">
        <ele>1861.4</ele>
        <time>2013-10-30T11:19:01Z</time>
      </trkpt>
      <trkpt lat="45.35765" lon="5.89738">
        <ele>1863.1</ele>
        <time>2013-10-30T11:19:17Z</time>
      </trkpt>
      <trkpt lat="45.35765" lon="5.89751">
        <ele>1863.2</ele>
        <time>2013-10-30T11:20:24Z</time>
      </trkpt>
      <trkpt lat="45.35766" lon="5.89738">
        <ele>1863.5</ele>
        <time>2013-10-30T11:23:22Z</time>
      </trkpt>
      <trkpt lat="45.35766" lon="5.89725">
        <ele>1861.1</ele>
        <time>2013-10-30T11:23:37Z</time>
      </trkpt>
      <trkpt lat="45.35764" lon="5.89713">
        <ele>1860.1</ele>
        <time>2013-10-30T11:23:56Z</time>
      </trkpt>
      <trkpt lat="45.35763" lon="5.897">
        <ele>1858.3</ele>
        <time>2013-10-30T11:24:40Z</time>
      </trkpt>
      <trkpt lat="45.35768" lon="5.89694">
        <ele>1851.3</ele>
        <time>2013-10-30T12:27:40Z</time>
      </trkpt>
      <trkpt lat="45.35777" lon="5.89689">
        <ele>1848.1</ele>
        <time>2013-10-30T12:28:00Z</time>
      </trkpt>
      <trkpt lat="45.35784" lon="5.89694">
        <ele>1843.3</ele>
        <time>2013-10-30T12:28:45Z</time>
      </trkpt>
      <trkpt lat="45.35792" lon="5.89696">
        <ele>1840.1</ele>
        <time>2013-10-30T12:29:02Z</time>
      </trkpt>
      <trkpt lat="45.35798" lon="5.89686">
        <ele>1836.7</ele>
        <time>2013-10-30T12:29:21Z</time>
      </trkpt>
      <trkpt lat="45.35806" lon="5.89684">
        <ele>1832.1</ele>
        <time>2013-10-30T12:29:38Z</time>
      </trkpt>
      <trkpt lat="45.35815" lon="5.89685">
        <ele>1830.2</ele>
        <time>2013-10-30T12:30:30Z</time>
      </trkpt>
      <trkpt lat="45.35824" lon="5.89684">
        <ele>1828.5</ele>
        <time>2013-10-30T12:30:41Z</time>
      </trkpt>
      <trkpt lat="45.35815" lon="5.89686">
        <ele>1830.6</ele>
        <time>2013-10-30T12:31:07Z</time>
      </trkpt>
      <trkpt lat="45.35807" lon="5.89691">
        <ele>1829.8</ele>
        <time>2013-10-30T12:31:22Z</time>
      </trkpt>
      <trkpt lat="45.35808" lon="5.89704">
        <ele>1827.4</ele>
        <time>2013-10-30T12:31:38Z</time>
      </trkpt>
      <trkpt lat="45.35808" lon="5.89718">
        <ele>1829.1</ele>
        <time>2013-10-30T12:31:51Z</time>
      </trkpt>
      <trkpt lat="45.35809" lon="5.8973">
        <ele>1824.7</ele>
        <time>2013-10-30T12:32:08Z</time>
      </trkpt>
      <trkpt lat="45.35816" lon="5.89732">
        <ele>1819.3</ele>
        <time>2013-10-30T12:32:30Z</time>
      </trkpt>
      <trkpt lat="45.35822" lon="5.89743">
        <ele>1818.7</ele>
        <time>2013-10-30T12:32:58Z</time>
      </trkpt>
      <trkpt lat="45.35813" lon="5.89752">
        <ele>1818.4</ele>
        <time>2013-10-30T12:33:21Z</time>
      </trkpt>
      <trkpt lat="45.35806" lon="5.8976">
        <ele>1816.9</ele>
        <time>2013-10-30T12:33:31Z</time>
      </trkpt>
      <trkpt lat="45.35803" lon="5.89772">
        <ele>1815.2</ele>
        <time>2013-10-30T12:33:41Z</time>
      </trkpt>
      <trkpt lat="45.35796" lon="5.89781">
        <ele>1814.8</ele>
        <time>2013-10-30T12:33:55Z</time>
      </trkpt>
      <trkpt lat="45.3579" lon="5.89792">
        <ele>1814.5</ele>
        <time>2013-10-30T12:34:04Z</time>
      </trkpt>
      <trkpt lat="45.35783" lon="5.898">
        <ele>1813.4</ele>
        <time>2013-10-30T12:34:14Z</time>
      </trkpt>
      <trkpt lat="45.35773" lon="5.89802">
        <ele>1813.1</ele>
        <time>2013-10-30T12:34:27Z</time>
      </trkpt>
      <trkpt lat="45.35765" lon="5.89797">
        <ele>1810.3</ele>
        <time>2013-10-30T12:34:38Z</time>
      </trkpt>
      <trkpt lat="45.35755" lon="5.89791">
        <ele>1807.8</ele>
        <time>2013-10-30T12:34:48Z</time>
      </trkpt>
      <trkpt lat="45.35746" lon="5.89788">
        <ele>1808.1</ele>
        <time>2013-10-30T12:34:56Z</time>
      </trkpt>
      <trkpt lat="45.35739" lon="5.89779">
        <ele>1806.7</ele>
        <time>2013-10-30T12:35:04Z</time>
      </trkpt>
      <trkpt lat="45.35734" lon="5.89768">
        <ele>1807.2</ele>
        <time>2013-10-30T12:35:14Z</time>
      </trkpt>
      <trkpt lat="45.35733" lon="5.89754">
        <ele>1807</ele>
        <time>2013-10-30T12:35:27Z</time>
      </trkpt>
      <trkpt lat="45.35734" lon="5.89742">
        <ele>1806.5</ele>
        <time>2013-10-30T12:35:40Z</time>
      </trkpt>
      <trkpt lat="45.35737" lon="5.89728">
        <ele>1804.5</ele>
        <time>2013-10-30T12:35:52Z</time>
      </trkpt>
      <trkpt lat="45.35738" lon="5.89716">
        <ele>1802.3</ele>
        <time>2013-10-30T12:36:03Z</time>
      </trkpt>
      <trkpt lat="45.35744" lon="5.89705">
        <ele>1801.2</ele>
        <time>2013-10-30T12:36:16Z</time>
      </trkpt>
      <trkpt lat="45.35745" lon="5.89691">
        <ele>1800.3</ele>
        <time>2013-10-30T12:36:28Z</time>
      </trkpt>
      <trkpt lat="45.35744" lon="5.89679">
        <ele>1799.4</ele>
        <time>2013-10-30T12:36:40Z</time>
      </trkpt>
      <trkpt lat="45.35742" lon="5.89665">
        <ele>1798.9</ele>
        <time>2013-10-30T12:36:51Z</time>
      </trkpt>
      <trkpt lat="45.35736" lon="5.89668">
        <ele>1805.5</ele>
        <time>2013-10-30T12:37:38Z</time>
      </trkpt>
      <trkpt lat="45.35731" lon="5.89676">
        <ele>1811.6</ele>
        <time>2013-10-30T12:38:17Z</time>
      </trkpt>
      <trkpt lat="45.35723" lon="5.89683">
        <ele>1814.8</ele>
        <time>2013-10-30T12:38:40Z</time>
      </trkpt>
      <trkpt lat="45.35716" lon="5.89693">
        <ele>1816.4</ele>
        <time>2013-10-30T12:38:52Z</time>
      </trkpt>
      <trkpt lat="45.3571" lon="5.89704">
        <ele>1818.5</ele>
        <time>2013-10-30T12:39:05Z</time>
      </trkpt>
      <trkpt lat="45.35707" lon="5.89708">
        <ele>1827.1</ele>
        <time>2013-10-30T12:40:02Z</time>
      </trkpt>
      <trkpt lat="45.35701" lon="5.89701">
        <ele>1833.2</ele>
        <time>2013-10-30T12:40:54Z</time>
      </trkpt>
      <trkpt lat="45.35697" lon="5.89688">
        <ele>1834.8</ele>
        <time>2013-10-30T12:41:07Z</time>
      </trkpt>
      <trkpt lat="45.35693" lon="5.89676">
        <ele>1837.1</ele>
        <time>2013-10-30T12:41:20Z</time>
      </trkpt>
      <trkpt lat="45.35687" lon="5.89666">
        <ele>1839.5</ele>
        <time>2013-10-30T12:41:33Z</time>
      </trkpt>
      <trkpt lat="45.35694" lon="5.89653">
        <ele>1840</ele>
        <time>2013-10-30T12:41:37Z</time>
      </trkpt>
      <trkpt lat="45.35696" lon="5.89639">
        <ele>1840.8</ele>
        <time>2013-10-30T12:41:43Z</time>
      </trkpt>
      <trkpt lat="45.35696" lon="5.89625">
        <ele>1840.9</ele>
        <time>2013-10-30T12:41:51Z</time>
      </trkpt>
      <trkpt lat="45.35696" lon="5.89612">
        <ele>1840.6</ele>
        <time>2013-10-30T12:42:01Z</time>
      </trkpt>
      <trkpt lat="45.35691" lon="5.89599">
        <ele>1839.9</ele>
        <time>2013-10-30T12:42:13Z</time>
      </trkpt>
      <trkpt lat="45.3569" lon="5.89586">
        <ele>1838.5</ele>
        <time>2013-10-30T12:42:22Z</time>
      </trkpt>
      <trkpt lat="45.35684" lon="5.89575">
        <ele>1838.5</ele>
        <time>2013-10-30T12:42:37Z</time>
      </trkpt>
      <trkpt lat="45.35679" lon="5.89565">
        <ele>1839.4</ele>
        <time>2013-10-30T12:42:49Z</time>
      </trkpt>
      <trkpt lat="45.3567" lon="5.89562">
        <ele>1841</ele>
        <time>2013-10-30T12:43:00Z</time>
      </trkpt>
      <trkpt lat="45.35665" lon="5.89573">
        <ele>1844.7</ele>
        <time>2013-10-30T12:43:19Z</time>
      </trkpt>
      <trkpt lat="45.35672" lon="5.89582">
        <ele>1845.9</ele>
        <time>2013-10-30T12:43:43Z</time>
      </trkpt>
      <trkpt lat="45.35669" lon="5.89577">
        <ele>1836.7</ele>
        <time>2013-10-30T12:44:01Z</time>
      </trkpt>
      <trkpt lat="45.35666" lon="5.89567">
        <ele>1830.2</ele>
        <time>2013-10-30T12:44:14Z</time>
      </trkpt>
      <trkpt lat="45.3566" lon="5.89561">
        <ele>1824.6</ele>
        <time>2013-10-30T12:44:33Z</time>
      </trkpt>
      <trkpt lat="45.35654" lon="5.89556">
        <ele>1817.6</ele>
        <time>2013-10-30T12:44:50Z</time>
      </trkpt>
      <trkpt lat="45.3566" lon="5.89564">
        <ele>1813</ele>
        <time>2013-10-30T12:45:08Z</time>
      </trkpt>
      <trkpt lat="45.35664" lon="5.89575">
        <ele>1809.3</ele>
        <time>2013-10-30T12:45:22Z</time>
      </trkpt>
      <trkpt lat="45.35668" lon="5.89585">
        <ele>1804.5</ele>
        <time>2013-10-30T12:45:37Z</time>
      </trkpt>
      <trkpt lat="45.35661" lon="5.89587">
        <ele>1798.6</ele>
        <time>2013-10-30T12:46:01Z</time>
      </trkpt>
      <trkpt lat="45.35655" lon="5.89582">
        <ele>1792.4</ele>
        <time>2013-10-30T12:46:18Z</time>
      </trkpt>
      <trkpt lat="45.35651" lon="5.89578">
        <ele>1783.1</ele>
        <time>2013-10-30T12:46:33Z</time>
      </trkpt>
      <trkpt lat="45.35645" lon="5.89574">
        <ele>1776.4</ele>
        <time>2013-10-30T12:46:47Z</time>
      </trkpt>
      <trkpt lat="45.35648" lon="5.89574">
        <ele>1766.1</ele>
        <time>2013-10-30T12:46:53Z</time>
      </trkpt>
      <trkpt lat="45.35645" lon="5.89572">
        <ele>1756.3</ele>
        <time>2013-10-30T12:47:06Z</time>
      </trkpt>
      <trkpt lat="45.3565" lon="5.89571">
        <ele>1747.5</ele>
        <time>2013-10-30T12:47:21Z</time>
      </trkpt>
      <trkpt lat="45.35657" lon="5.89574">
        <ele>1741.9</ele>
        <time>2013-10-30T12:47:33Z</time>
      </trkpt>
      <trkpt lat="45.35661" lon="5.89582">
        <ele>1734.7</ele>
        <time>2013-10-30T12:47:48Z</time>
      </trkpt>
      <trkpt lat="45.35654" lon="5.89584">
        <ele>1728.8</ele>
        <time>2013-10-30T12:48:03Z</time>
      </trkpt>
      <trkpt lat="45.35647" lon="5.89585">
        <ele>1722.4</ele>
        <time>2013-10-30T12:48:16Z</time>
      </trkpt>
      <trkpt lat="45.35638" lon="5.89584">
        <ele>1718.7</ele>
        <time>2013-10-30T12:48:30Z</time>
      </trkpt>
      <trkpt lat="45.35641" lon="5.89595">
        <ele>1713.1</ele>
        <time>2013-10-30T12:49:31Z</time>
      </trkpt>
      <trkpt lat="45.35645" lon="5.89605">
        <ele>1709.2</ele>
        <time>2013-10-30T12:49:46Z</time>
      </trkpt>
      <trkpt lat="45.35647" lon="5.89616">
        <ele>1703.5</ele>
        <time>2013-10-30T12:50:02Z</time>
      </trkpt>
      <trkpt lat="45.35651" lon="5.89627">
        <ele>1699.4</ele>
        <time>2013-10-30T12:50:19Z</time>
      </trkpt>
      <trkpt lat="45.35647" lon="5.89636">
        <ele>1694.1</ele>
        <time>2013-10-30T12:50:40Z</time>
      </trkpt>
      <trkpt lat="45.35646" lon="5.89646">
        <ele>1687.5</ele>
        <time>2013-10-30T12:51:10Z</time>
      </trkpt>
      <trkpt lat="45.35648" lon="5.89658">
        <ele>1683.6</ele>
        <time>2013-10-30T12:51:32Z</time>
      </trkpt>
      <trkpt lat="45.3564" lon="5.89658">
        <ele>1679.3</ele>
        <time>2013-10-30T12:51:51Z</time>
      </trkpt>
      <trkpt lat="45.35631" lon="5.89658">
        <ele>1678</ele>
        <time>2013-10-30T12:52:12Z</time>
      </trkpt>
      <trkpt lat="45.35625" lon="5.8965">
        <ele>1673.5</ele>
        <time>2013-10-30T12:52:32Z</time>
      </trkpt>
      <trkpt lat="45.35616" lon="5.89647">
        <ele>1671.4</ele>
        <time>2013-10-30T12:52:51Z</time>
      </trkpt>
      <trkpt lat="45.35615" lon="5.89658">
        <ele>1665.9</ele>
        <time>2013-10-30T12:53:18Z</time>
      </trkpt>
      <trkpt lat="45.35617" lon="5.8967">
        <ele>1662.1</ele>
        <time>2013-10-30T12:53:32Z</time>
      </trkpt>
      <trkpt lat="45.35614" lon="5.89681">
        <ele>1659.2</ele>
        <time>2013-10-30T12:53:48Z</time>
      </trkpt>
      <trkpt lat="45.35615" lon="5.89693">
        <ele>1655.6</ele>
        <time>2013-10-30T12:54:07Z</time>
      </trkpt>
      <trkpt lat="45.35614" lon="5.89704">
        <ele>1650.1</ele>
        <time>2013-10-30T12:54:29Z</time>
      </trkpt>
      <trkpt lat="45.35612" lon="5.89715">
        <ele>1645</ele>
        <time>2013-10-30T12:54:49Z</time>
      </trkpt>
      <trkpt lat="45.35614" lon="5.89727">
        <ele>1640.4</ele>
        <time>2013-10-30T12:55:05Z</time>
      </trkpt>
      <trkpt lat="45.35616" lon="5.89739">
        <ele>1636.2</ele>
        <time>2013-10-30T12:55:20Z</time>
      </trkpt>
      <trkpt lat="45.35619" lon="5.8975">
        <ele>1632.4</ele>
        <time>2013-10-30T12:55:30Z</time>
      </trkpt>
      <trkpt lat="45.3562" lon="5.89763">
        <ele>1628.5</ele>
        <time>2013-10-30T12:55:47Z</time>
      </trkpt>
      <trkpt lat="45.35623" lon="5.89775">
        <ele>1625.4</ele>
        <time>2013-10-30T12:56:02Z</time>
      </trkpt>
      <trkpt lat="45.35623" lon="5.89788">
        <ele>1622.9</ele>
        <time>2013-10-30T12:56:16Z</time>
      </trkpt>
      <trkpt lat="45.35625" lon="5.898">
        <ele>1619.9</ele>
        <time>2013-10-30T12:56:28Z</time>
      </trkpt>
      <trkpt lat="45.35629" lon="5.89812">
        <ele>1616.5</ele>
        <time>2013-10-30T12:56:43Z</time>
      </trkpt>
      <trkpt lat="45.35632" lon="5.89823">
        <ele>1612.8</ele>
        <time>2013-10-30T12:56:56Z</time>
      </trkpt>
      <trkpt lat="45.35636" lon="5.89833">
        <ele>1609.1</ele>
        <time>2013-10-30T12:57:09Z</time>
      </trkpt>
      <trkpt lat="45.35635" lon="5.89846">
        <ele>1608.6</ele>
        <time>2013-10-30T12:57:28Z</time>
      </trkpt>
      <trkpt lat="45.35627" lon="5.89841">
        <ele>1604.8</ele>
        <time>2013-10-30T13:06:48Z</time>
      </trkpt>
      <trkpt lat="45.35628" lon="5.89852">
        <ele>1598.7</ele>
        <time>2013-10-30T13:07:18Z</time>
      </trkpt>
      <trkpt lat="45.35632" lon="5.89863">
        <ele>1596.7</ele>
        <time>2013-10-30T13:07:31Z</time>
      </trkpt>
      <trkpt lat="45.35634" lon="5.89876">
        <ele>1594.5</ele>
        <time>2013-10-30T13:07:45Z</time>
      </trkpt>
      <trkpt lat="45.35636" lon="5.89889">
        <ele>1591.3</ele>
        <time>2013-10-30T13:07:57Z</time>
      </trkpt>
      <trkpt lat="45.35637" lon="5.89902">
        <ele>1589.7</ele>
        <time>2013-10-30T13:08:08Z</time>
      </trkpt>
      <trkpt lat="45.35638" lon="5.89916">
        <ele>1588.6</ele>
        <time>2013-10-30T13:08:21Z</time>
      </trkpt>
      <trkpt lat="45.35631" lon="5.89925">
        <ele>1590</ele>
        <time>2013-10-30T13:08:33Z</time>
      </trkpt>
      <trkpt lat="45.35631" lon="5.89937">
        <ele>1585.8</ele>
        <time>2013-10-30T13:08:47Z</time>
      </trkpt>
      <trkpt lat="45.35625" lon="5.89945">
        <ele>1581.3</ele>
        <time>2013-10-30T13:09:03Z</time>
      </trkpt>
      <trkpt lat="45.35624" lon="5.89958">
        <ele>1579.8</ele>
        <time>2013-10-30T13:09:18Z</time>
      </trkpt>
      <trkpt lat="45.35617" lon="5.89966">
        <ele>1576.4</ele>
        <time>2013-10-30T13:09:33Z</time>
      </trkpt>
      <trkpt lat="45.35617" lon="5.89978">
        <ele>1572.4</ele>
        <time>2013-10-30T13:09:51Z</time>
      </trkpt>
      <trkpt lat="45.35616" lon="5.89991">
        <ele>1568.6</ele>
        <time>2013-10-30T13:10:07Z</time>
      </trkpt>
      <trkpt lat="45.35618" lon="5.90003">
        <ele>1564.6</ele>
        <time>2013-10-30T13:10:19Z</time>
      </trkpt>
      <trkpt lat="45.3562" lon="5.90015">
        <ele>1560.8</ele>
        <time>2013-10-30T13:10:31Z</time>
      </trkpt>
      <trkpt lat="45.35623" lon="5.90028">
        <ele>1557.9</ele>
        <time>2013-10-30T13:10:44Z</time>
      </trkpt>
      <trkpt lat="45.35625" lon="5.9004">
        <ele>1555.2</ele>
        <time>2013-10-30T13:10:55Z</time>
      </trkpt>
      <trkpt lat="45.35629" lon="5.90052">
        <ele>1553.8</ele>
        <time>2013-10-30T13:11:07Z</time>
      </trkpt>
      <trkpt lat="45.35635" lon="5.90063">
        <ele>1550.9</ele>
        <time>2013-10-30T13:11:18Z</time>
      </trkpt>
      <trkpt lat="45.35642" lon="5.90071">
        <ele>1549.9</ele>
        <time>2013-10-30T13:11:27Z</time>
      </trkpt>
      <trkpt lat="45.35648" lon="5.90082">
        <ele>1547.4</ele>
        <time>2013-10-30T13:11:38Z</time>
      </trkpt>
      <trkpt lat="45.35654" lon="5.90092">
        <ele>1545.7</ele>
        <time>2013-10-30T13:11:48Z</time>
      </trkpt>
      <trkpt lat="45.35659" lon="5.90102">
        <ele>1543.7</ele>
        <time>2013-10-30T13:11:58Z</time>
      </trkpt>
      <trkpt lat="45.35663" lon="5.90114">
        <ele>1543</ele>
        <time>2013-10-30T13:12:09Z</time>
      </trkpt>
      <trkpt lat="45.3567" lon="5.90122">
        <ele>1538.9</ele>
        <time>2013-10-30T13:12:21Z</time>
      </trkpt>
      <trkpt lat="45.35674" lon="5.90132">
        <ele>1535.8</ele>
        <time>2013-10-30T13:12:33Z</time>
      </trkpt>
      <trkpt lat="45.35679" lon="5.90143">
        <ele>1532.1</ele>
        <time>2013-10-30T13:12:44Z</time>
      </trkpt>
      <trkpt lat="45.35679" lon="5.90156">
        <ele>1529.3</ele>
        <time>2013-10-30T13:12:58Z</time>
      </trkpt>
      <trkpt lat="45.3567" lon="5.90156">
        <ele>1524.1</ele>
        <time>2013-10-30T13:13:11Z</time>
      </trkpt>
      <trkpt lat="45.35661" lon="5.90157">
        <ele>1521.7</ele>
        <time>2013-10-30T13:13:24Z</time>
      </trkpt>
      <trkpt lat="45.35653" lon="5.90158">
        <ele>1518.5</ele>
        <time>2013-10-30T13:13:36Z</time>
      </trkpt>
      <trkpt lat="45.35644" lon="5.90159">
        <ele>1515.7</ele>
        <time>2013-10-30T13:13:49Z</time>
      </trkpt>
      <trkpt lat="45.35635" lon="5.90157">
        <ele>1512.5</ele>
        <time>2013-10-30T13:14:03Z</time>
      </trkpt>
      <trkpt lat="45.35626" lon="5.9016">
        <ele>1509.9</ele>
        <time>2013-10-30T13:14:15Z</time>
      </trkpt>
      <trkpt lat="45.35617" lon="5.90162">
        <ele>1507.6</ele>
        <time>2013-10-30T13:14:26Z</time>
      </trkpt>
      <trkpt lat="45.35608" lon="5.90165">
        <ele>1508.3</ele>
        <time>2013-10-30T13:14:37Z</time>
      </trkpt>
      <trkpt lat="45.35599" lon="5.90168">
        <ele>1508.6</ele>
        <time>2013-10-30T13:14:48Z</time>
      </trkpt>
      <trkpt lat="45.3559" lon="5.9017">
        <ele>1506.3</ele>
        <time>2013-10-30T13:15:02Z</time>
      </trkpt>
      <trkpt lat="45.35581" lon="5.90169">
        <ele>1502.9</ele>
        <time>2013-10-30T13:15:12Z</time>
      </trkpt>
      <trkpt lat="45.35572" lon="5.90168">
        <ele>1500.4</ele>
        <time>2013-10-30T13:15:22Z</time>
      </trkpt>
      <trkpt lat="45.35564" lon="5.90169">
        <ele>1497.5</ele>
        <time>2013-10-30T13:15:32Z</time>
      </trkpt>
      <trkpt lat="45.35554" lon="5.90168">
        <ele>1496.8</ele>
        <time>2013-10-30T13:15:43Z</time>
      </trkpt>
      <trkpt lat="45.35545" lon="5.90166">
        <ele>1493.1</ele>
        <time>2013-10-30T13:15:52Z</time>
      </trkpt>
      <trkpt lat="45.35537" lon="5.90168">
        <ele>1488.7</ele>
        <time>2013-10-30T13:16:02Z</time>
      </trkpt>
      <trkpt lat="45.35529" lon="5.90169">
        <ele>1483.6</ele>
        <time>2013-10-30T13:16:12Z</time>
      </trkpt>
      <trkpt lat="45.3552" lon="5.90167">
        <ele>1480.9</ele>
        <time>2013-10-30T13:16:22Z</time>
      </trkpt>
      <trkpt lat="45.35511" lon="5.90166">
        <ele>1478.5</ele>
        <time>2013-10-30T13:16:33Z</time>
      </trkpt>
      <trkpt lat="45.35501" lon="5.90165">
        <ele>1476.3</ele>
        <time>2013-10-30T13:16:44Z</time>
      </trkpt>
      <trkpt lat="45.35493" lon="5.90171">
        <ele>1474.1</ele>
        <time>2013-10-30T13:16:55Z</time>
      </trkpt>
      <trkpt lat="45.3549" lon="5.90183">
        <ele>1472.8</ele>
        <time>2013-10-30T13:17:05Z</time>
      </trkpt>
      <trkpt lat="45.35486" lon="5.90195">
        <ele>1471.5</ele>
        <time>2013-10-30T13:17:14Z</time>
      </trkpt>
      <trkpt lat="45.35482" lon="5.90207">
        <ele>1470.3</ele>
        <time>2013-10-30T13:17:24Z</time>
      </trkpt>
      <trkpt lat="45.35479" lon="5.90219">
        <ele>1468.6</ele>
        <time>2013-10-30T13:17:32Z</time>
      </trkpt>
      <trkpt lat="45.35476" lon="5.90232">
        <ele>1466.5</ele>
        <time>2013-10-30T13:17:41Z</time>
      </trkpt>
      <trkpt lat="45.35474" lon="5.90245">
        <ele>1464.3</ele>
        <time>2013-10-30T13:17:51Z</time>
      </trkpt>
      <trkpt lat="45.35475" lon="5.90257">
        <ele>1461.5</ele>
        <time>2013-10-30T13:18:02Z</time>
      </trkpt>
      <trkpt lat="45.35476" lon="5.9027">
        <ele>1458.4</ele>
        <time>2013-10-30T13:18:14Z</time>
      </trkpt>
      <trkpt lat="45.35474" lon="5.90283">
        <ele>1456</ele>
        <time>2013-10-30T13:18:29Z</time>
      </trkpt>
      <trkpt lat="45.35474" lon="5.90295">
        <ele>1452.6</ele>
        <time>2013-10-30T13:18:43Z</time>
      </trkpt>
      <trkpt lat="45.35484" lon="5.90297">
        <ele>1450.7</ele>
        <time>2013-10-30T13:18:57Z</time>
      </trkpt>
      <trkpt lat="45.35492" lon="5.90292">
        <ele>1448.4</ele>
        <time>2013-10-30T13:19:09Z</time>
      </trkpt>
      <trkpt lat="45.355" lon="5.90288">
        <ele>1446.1</ele>
        <time>2013-10-30T13:19:31Z</time>
      </trkpt>
      <trkpt lat="45.35509" lon="5.9029">
        <ele>1443.1</ele>
        <time>2013-10-30T13:19:43Z</time>
      </trkpt>
      <trkpt lat="45.35517" lon="5.90299">
        <ele>1440.7</ele>
        <time>2013-10-30T13:19:59Z</time>
      </trkpt>
      <trkpt lat="45.35517" lon="5.90311">
        <ele>1435.9</ele>
        <time>2013-10-30T13:20:18Z</time>
      </trkpt>
      <trkpt lat="45.35517" lon="5.90322">
        <ele>1430.1</ele>
        <time>2013-10-30T13:20:33Z</time>
      </trkpt>
      <trkpt lat="45.3552" lon="5.90334">
        <ele>1427</ele>
        <time>2013-10-30T13:21:00Z</time>
      </trkpt>
      <trkpt lat="45.35528" lon="5.90339">
        <ele>1423.6</ele>
        <time>2013-10-30T13:21:20Z</time>
      </trkpt>
      <trkpt lat="45.35537" lon="5.90343">
        <ele>1424.1</ele>
        <time>2013-10-30T13:21:32Z</time>
      </trkpt>
      <trkpt lat="45.35545" lon="5.90349">
        <ele>1423.5</ele>
        <time>2013-10-30T13:21:45Z</time>
      </trkpt>
      <trkpt lat="45.35554" lon="5.90355">
        <ele>1421.3</ele>
        <time>2013-10-30T13:21:57Z</time>
      </trkpt>
      <trkpt lat="45.35562" lon="5.90359">
        <ele>1419.4</ele>
        <time>2013-10-30T13:22:09Z</time>
      </trkpt>
      <trkpt lat="45.35571" lon="5.90368">
        <ele>1417</ele>
        <time>2013-10-30T13:22:22Z</time>
      </trkpt>
      <trkpt lat="45.35579" lon="5.90375">
        <ele>1416.9</ele>
        <time>2013-10-30T13:22:37Z</time>
      </trkpt>
      <trkpt lat="45.35587" lon="5.9038">
        <ele>1415.1</ele>
        <time>2013-10-30T13:22:49Z</time>
      </trkpt>
      <trkpt lat="45.35595" lon="5.90387">
        <ele>1413.6</ele>
        <time>2013-10-30T13:22:59Z</time>
      </trkpt>
      <trkpt lat="45.35603" lon="5.90395">
        <ele>1412.7</ele>
        <time>2013-10-30T13:23:10Z</time>
      </trkpt>
      <trkpt lat="45.3561" lon="5.90404">
        <ele>1412</ele>
        <time>2013-10-30T13:23:22Z</time>
      </trkpt>
      <trkpt lat="45.35615" lon="5.90414">
        <ele>1411.5</ele>
        <time>2013-10-30T13:23:37Z</time>
      </trkpt>
      <trkpt lat="45.35622" lon="5.90425">
        <ele>1412</ele>
        <time>2013-10-30T13:23:45Z</time>
      </trkpt>
      <trkpt lat="45.35628" lon="5.90436">
        <ele>1411.2</ele>
        <time>2013-10-30T13:23:55Z</time>
      </trkpt>
      <trkpt lat="45.35634" lon="5.90445">
        <ele>1408.8</ele>
        <time>2013-10-30T13:24:05Z</time>
      </trkpt>
      <trkpt lat="45.35638" lon="5.90457">
        <ele>1406.3</ele>
        <time>2013-10-30T13:24:14Z</time>
      </trkpt>
      <trkpt lat="45.35642" lon="5.90469">
        <ele>1403.3</ele>
        <time>2013-10-30T13:24:24Z</time>
      </trkpt>
      <trkpt lat="45.35643" lon="5.90482">
        <ele>1400.2</ele>
        <time>2013-10-30T13:24:33Z</time>
      </trkpt>
      <trkpt lat="45.35646" lon="5.90494">
        <ele>1397</ele>
        <time>2013-10-30T13:24:41Z</time>
      </trkpt>
      <trkpt lat="45.3565" lon="5.90506">
        <ele>1394.1</ele>
        <time>2013-10-30T13:24:51Z</time>
      </trkpt>
      <trkpt lat="45.35653" lon="5.90518">
        <ele>1391.7</ele>
        <time>2013-10-30T13:25:01Z</time>
      </trkpt>
      <trkpt lat="45.35658" lon="5.9053">
        <ele>1388.4</ele>
        <time>2013-10-30T13:25:11Z</time>
      </trkpt>
      <trkpt lat="45.35664" lon="5.90539">
        <ele>1384.8</ele>
        <time>2013-10-30T13:25:23Z</time>
      </trkpt>
      <trkpt lat="45.35668" lon="5.90551">
        <ele>1382.8</ele>
        <time>2013-10-30T13:25:36Z</time>
      </trkpt>
      <trkpt lat="45.35673" lon="5.90562">
        <ele>1381.4</ele>
        <time>2013-10-30T13:25:46Z</time>
      </trkpt>
      <trkpt lat="45.35679" lon="5.90572">
        <ele>1380.2</ele>
        <time>2013-10-30T13:25:55Z</time>
      </trkpt>
      <trkpt lat="45.35686" lon="5.90582">
        <ele>1378.5</ele>
        <time>2013-10-30T13:26:06Z</time>
      </trkpt>
      <trkpt lat="45.35692" lon="5.90591">
        <ele>1375</ele>
        <time>2013-10-30T13:26:17Z</time>
      </trkpt>
      <trkpt lat="45.35699" lon="5.90599">
        <ele>1371.5</ele>
        <time>2013-10-30T13:26:30Z</time>
      </trkpt>
      <trkpt lat="45.35707" lon="5.90607">
        <ele>1370.3</ele>
        <time>2013-10-30T13:26:39Z</time>
      </trkpt>
      <trkpt lat="45.35713" lon="5.90619">
        <ele>1369.2</ele>
        <time>2013-10-30T13:26:48Z</time>
      </trkpt>
      <trkpt lat="45.35718" lon="5.9063">
        <ele>1368.7</ele>
        <time>2013-10-30T13:26:57Z</time>
      </trkpt>
      <trkpt lat="45.35721" lon="5.90642">
        <ele>1366.5</ele>
        <time>2013-10-30T13:27:09Z</time>
      </trkpt>
      <trkpt lat="45.35725" lon="5.90654">
        <ele>1363.4</ele>
        <time>2013-10-30T13:27:20Z</time>
      </trkpt>
      <trkpt lat="45.35729" lon="5.90666">
        <ele>1360.7</ele>
        <time>2013-10-30T13:27:30Z</time>
      </trkpt>
      <trkpt lat="45.35734" lon="5.90679">
        <ele>1357</ele>
        <time>2013-10-30T13:27:42Z</time>
      </trkpt>
      <trkpt lat="45.35739" lon="5.9069">
        <ele>1354</ele>
        <time>2013-10-30T13:27:52Z</time>
      </trkpt>
      <trkpt lat="45.35743" lon="5.90702">
        <ele>1352</ele>
        <time>2013-10-30T13:28:02Z</time>
      </trkpt>
      <trkpt lat="45.35749" lon="5.90712">
        <ele>1349.6</ele>
        <time>2013-10-30T13:28:13Z</time>
      </trkpt>
      <trkpt lat="45.35755" lon="5.90722">
        <ele>1345.7</ele>
        <time>2013-10-30T13:28:23Z</time>
      </trkpt>
      <trkpt lat="45.35761" lon="5.90731">
        <ele>1341.7</ele>
        <time>2013-10-30T13:28:33Z</time>
      </trkpt>
      <trkpt lat="45.35765" lon="5.90743">
        <ele>1340.6</ele>
        <time>2013-10-30T13:28:45Z</time>
      </trkpt>
      <trkpt lat="45.35773" lon="5.9075">
        <ele>1340.4</ele>
        <time>2013-10-30T13:28:55Z</time>
      </trkpt>
      <trkpt lat="45.3578" lon="5.90759">
        <ele>1338.8</ele>
        <time>2013-10-30T13:29:02Z</time>
      </trkpt>
      <trkpt lat="45.35789" lon="5.90765">
        <ele>1337.1</ele>
        <time>2013-10-30T13:29:10Z</time>
      </trkpt>
      <trkpt lat="45.35797" lon="5.9077">
        <ele>1333.9</ele>
        <time>2013-10-30T13:29:19Z</time>
      </trkpt>
      <trkpt lat="45.35804" lon="5.90777">
        <ele>1328.5</ele>
        <time>2013-10-30T13:29:30Z</time>
      </trkpt>
      <trkpt lat="45.35809" lon="5.90786">
        <ele>1324.4</ele>
        <time>2013-10-30T13:29:40Z</time>
      </trkpt>
      <trkpt lat="45.35811" lon="5.90799">
        <ele>1320.5</ele>
        <time>2013-10-30T13:29:50Z</time>
      </trkpt>
      <trkpt lat="45.3581" lon="5.90811">
        <ele>1316.6</ele>
        <time>2013-10-30T13:29:59Z</time>
      </trkpt>
      <trkpt lat="45.35809" lon="5.90824">
        <ele>1313.1</ele>
        <time>2013-10-30T13:30:08Z</time>
      </trkpt>
      <trkpt lat="45.35809" lon="5.90838">
        <ele>1309.8</ele>
        <time>2013-10-30T13:30:18Z</time>
      </trkpt>
      <trkpt lat="45.35809" lon="5.90851">
        <ele>1306.4</ele>
        <time>2013-10-30T13:30:30Z</time>
      </trkpt>
      <trkpt lat="45.35808" lon="5.90863">
        <ele>1301.9</ele>
        <time>2013-10-30T13:30:43Z</time>
      </trkpt>
      <trkpt lat="45.35809" lon="5.90876">
        <ele>1297.6</ele>
        <time>2013-10-30T13:30:53Z</time>
      </trkpt>
      <trkpt lat="45.35811" lon="5.90889">
        <ele>1293.8</ele>
        <time>2013-10-30T13:31:02Z</time>
      </trkpt>
      <trkpt lat="45.35814" lon="5.90901">
        <ele>1291.1</ele>
        <time>2013-10-30T13:31:12Z</time>
      </trkpt>
      <trkpt lat="45.35819" lon="5.90912">
        <ele>1292.2</ele>
        <time>2013-10-30T13:34:31Z</time>
      </trkpt>
      <trkpt lat="45.35825" lon="5.90922">
        <ele>1294.9</ele>
        <time>2013-10-30T13:34:43Z</time>
      </trkpt>
      <trkpt lat="45.3583" lon="5.90935">
        <ele>1292.4</ele>
        <time>2013-10-30T13:34:56Z</time>
      </trkpt>
      <trkpt lat="45.35834" lon="5.90946">
        <ele>1290.5</ele>
        <time>2013-10-30T13:35:10Z</time>
      </trkpt>
      <trkpt lat="45.35837" lon="5.90959">
        <ele>1290.3</ele>
        <time>2013-10-30T13:35:23Z</time>
      </trkpt>
      <trkpt lat="45.35839" lon="5.90971">
        <ele>1286.9</ele>
        <time>2013-10-30T13:35:32Z</time>
      </trkpt>
      <trkpt lat="45.35835" lon="5.90982">
        <ele>1283.5</ele>
        <time>2013-10-30T13:35:45Z</time>
      </trkpt>
      <trkpt lat="45.35836" lon="5.90994">
        <ele>1278.5</ele>
        <time>2013-10-30T13:35:58Z</time>
      </trkpt>
      <trkpt lat="45.35837" lon="5.91007">
        <ele>1274.2</ele>
        <time>2013-10-30T13:36:09Z</time>
      </trkpt>
      <trkpt lat="45.35839" lon="5.91019">
        <ele>1270.4</ele>
        <time>2013-10-30T13:36:20Z</time>
      </trkpt>
      <trkpt lat="45.35842" lon="5.91031">
        <ele>1267.6</ele>
        <time>2013-10-30T13:36:30Z</time>
      </trkpt>
      <trkpt lat="45.35844" lon="5.91043">
        <ele>1264</ele>
        <time>2013-10-30T13:36:39Z</time>
      </trkpt>
      <trkpt lat="45.35847" lon="5.91055">
        <ele>1261.9</ele>
        <time>2013-10-30T13:36:49Z</time>
      </trkpt>
      <trkpt lat="45.35851" lon="5.91067">
        <ele>1260.3</ele>
        <time>2013-10-30T13:36:58Z</time>
      </trkpt>
      <trkpt lat="45.35855" lon="5.91078">
        <ele>1256.4</ele>
        <time>2013-10-30T13:37:09Z</time>
      </trkpt>
      <trkpt lat="45.35862" lon="5.91088">
        <ele>1253.5</ele>
        <time>2013-10-30T13:37:18Z</time>
      </trkpt>
      <trkpt lat="45.3587" lon="5.91094">
        <ele>1252.4</ele>
        <time>2013-10-30T13:37:30Z</time>
      </trkpt>
      <trkpt lat="45.35875" lon="5.91104">
        <ele>1249.8</ele>
        <time>2013-10-30T13:37:43Z</time>
      </trkpt>
      <trkpt lat="45.3588" lon="5.91116">
        <ele>1249.8</ele>
        <time>2013-10-30T13:37:55Z</time>
      </trkpt>
      <trkpt lat="45.35886" lon="5.91126">
        <ele>1249.6</ele>
        <time>2013-10-30T13:38:08Z</time>
      </trkpt>
      <trkpt lat="45.35894" lon="5.91131">
        <ele>1247.1</ele>
        <time>2013-10-30T13:38:17Z</time>
      </trkpt>
      <trkpt lat="45.35902" lon="5.91138">
        <ele>1244.2</ele>
        <time>2013-10-30T13:38:32Z</time>
      </trkpt>
      <trkpt lat="45.35911" lon="5.91139">
        <ele>1242.6</ele>
        <time>2013-10-30T13:38:42Z</time>
      </trkpt>
      <trkpt lat="45.3592" lon="5.91141">
        <ele>1237.1</ele>
        <time>2013-10-30T13:38:50Z</time>
      </trkpt>
      <trkpt lat="45.35928" lon="5.91141">
        <ele>1233.1</ele>
        <time>2013-10-30T13:39:00Z</time>
      </trkpt>
      <trkpt lat="45.35938" lon="5.9114">
        <ele>1232.3</ele>
        <time>2013-10-30T13:39:13Z</time>
      </trkpt>
      <trkpt lat="45.35946" lon="5.91142">
        <ele>1229.6</ele>
        <time>2013-10-30T13:39:24Z</time>
      </trkpt>
      <trkpt lat="45.35955" lon="5.91143">
        <ele>1227.8</ele>
        <time>2013-10-30T13:39:33Z</time>
      </trkpt>
      <trkpt lat="45.35964" lon="5.91149">
        <ele>1225.1</ele>
        <time>2013-10-30T13:39:47Z</time>
      </trkpt>
      <trkpt lat="45.35968" lon="5.9116">
        <ele>1224.1</ele>
        <time>2013-10-30T13:40:01Z</time>
      </trkpt>
      <trkpt lat="45.3596" lon="5.91168">
        <ele>1224.2</ele>
        <time>2013-10-30T13:40:17Z</time>
      </trkpt>
      <trkpt lat="45.35956" lon="5.91179">
        <ele>1224.4</ele>
        <time>2013-10-30T13:40:30Z</time>
      </trkpt>
      <trkpt lat="45.35949" lon="5.91188">
        <ele>1226</ele>
        <time>2013-10-30T13:40:43Z</time>
      </trkpt>
      <trkpt lat="45.35941" lon="5.91195">
        <ele>1228.4</ele>
        <time>2013-10-30T13:40:55Z</time>
      </trkpt>
      <trkpt lat="45.35933" lon="5.91201">
        <ele>1226.3</ele>
        <time>2013-10-30T13:41:11Z</time>
      </trkpt>
      <trkpt lat="45.35926" lon="5.91209">
        <ele>1226</ele>
        <time>2013-10-30T13:41:24Z</time>
      </trkpt>
      <trkpt lat="45.3592" lon="5.91219">
        <ele>1224.8</ele>
        <time>2013-10-30T13:41:35Z</time>
      </trkpt>
      <trkpt lat="45.35914" lon="5.91228">
        <ele>1222.4</ele>
        <time>2013-10-30T13:41:46Z</time>
      </trkpt>
      <trkpt lat="45.35908" lon="5.91238">
        <ele>1219.7</ele>
        <time>2013-10-30T13:42:01Z</time>
      </trkpt>
      <trkpt lat="45.35901" lon="5.91238">
        <ele>1213.3</ele>
        <time>2013-10-30T13:42:15Z</time>
      </trkpt>
      <trkpt lat="45.35893" lon="5.91243">
        <ele>1209.5</ele>
        <time>2013-10-30T13:42:29Z</time>
      </trkpt>
      <trkpt lat="45.35884" lon="5.91244">
        <ele>1207.6</ele>
        <time>2013-10-30T13:42:38Z</time>
      </trkpt>
      <trkpt lat="45.35877" lon="5.91253">
        <ele>1206.8</ele>
        <time>2013-10-30T13:42:48Z</time>
      </trkpt>
      <trkpt lat="45.3587" lon="5.91262">
        <ele>1204.9</ele>
        <time>2013-10-30T13:43:00Z</time>
      </trkpt>
      <trkpt lat="45.35861" lon="5.91265">
        <ele>1205.4</ele>
        <time>2013-10-30T13:43:09Z</time>
      </trkpt>
      <trkpt lat="45.35852" lon="5.9127">
        <ele>1205.9</ele>
        <time>2013-10-30T13:43:20Z</time>
      </trkpt>
      <trkpt lat="45.35845" lon="5.91275">
        <ele>1200.6</ele>
        <time>2013-10-30T13:43:34Z</time>
      </trkpt>
      <trkpt lat="45.35838" lon="5.91279">
        <ele>1193.8</ele>
        <time>2013-10-30T13:43:49Z</time>
      </trkpt>
      <trkpt lat="45.35831" lon="5.91287">
        <ele>1191.4</ele>
        <time>2013-10-30T13:44:03Z</time>
      </trkpt>
      <trkpt lat="45.35825" lon="5.91295">
        <ele>1187.9</ele>
        <time>2013-10-30T13:44:14Z</time>
      </trkpt>
      <trkpt lat="45.35817" lon="5.91304">
        <ele>1184.9</ele>
        <time>2013-10-30T13:44:24Z</time>
      </trkpt>
      <trkpt lat="45.35809" lon="5.91311">
        <ele>1180.9</ele>
        <time>2013-10-30T13:44:33Z</time>
      </trkpt>
      <trkpt lat="45.35801" lon="5.91313">
        <ele>1178.7</ele>
        <time>2013-10-30T13:44:41Z</time>
      </trkpt>
      <trkpt lat="45.35791" lon="5.91316">
        <ele>1178.3</ele>
        <time>2013-10-30T13:44:51Z</time>
      </trkpt>
      <trkpt lat="45.35782" lon="5.91321">
        <ele>1178.2</ele>
        <time>2013-10-30T13:45:01Z</time>
      </trkpt>
      <trkpt lat="45.35774" lon="5.91324">
        <ele>1176.7</ele>
        <time>2013-10-30T13:45:11Z</time>
      </trkpt>
      <trkpt lat="45.35765" lon="5.9133">
        <ele>1174</ele>
        <time>2013-10-30T13:45:22Z</time>
      </trkpt>
      <trkpt lat="45.35755" lon="5.91332">
        <ele>1171.3</ele>
        <time>2013-10-30T13:45:32Z</time>
      </trkpt>
      <trkpt lat="45.35746" lon="5.91335">
        <ele>1170.9</ele>
        <time>2013-10-30T13:45:42Z</time>
      </trkpt>
      <trkpt lat="45.35738" lon="5.91338">
        <ele>1169.6</ele>
        <time>2013-10-30T13:45:52Z</time>
      </trkpt>
      <trkpt lat="45.35732" lon="5.91347">
        <ele>1165.4</ele>
        <time>2013-10-30T13:46:37Z</time>
      </trkpt>
      <trkpt lat="45.35726" lon="5.91357">
        <ele>1163.8</ele>
        <time>2013-10-30T13:46:46Z</time>
      </trkpt>
      <trkpt lat="45.35722" lon="5.9137">
        <ele>1161.1</ele>
        <time>2013-10-30T13:46:56Z</time>
      </trkpt>
      <trkpt lat="45.35717" lon="5.91381">
        <ele>1159.7</ele>
        <time>2013-10-30T13:47:06Z</time>
      </trkpt>
      <trkpt lat="45.35714" lon="5.91393">
        <ele>1156.3</ele>
        <time>2013-10-30T13:47:17Z</time>
      </trkpt>
      <trkpt lat="45.35711" lon="5.91405">
        <ele>1152.5</ele>
        <time>2013-10-30T13:47:27Z</time>
      </trkpt>
      <trkpt lat="45.35708" lon="5.91416">
        <ele>1148.3</ele>
        <time>2013-10-30T13:47:37Z</time>
      </trkpt>
      <trkpt lat="45.35706" lon="5.91429">
        <ele>1145.5</ele>
        <time>2013-10-30T13:47:48Z</time>
      </trkpt>
      <trkpt lat="45.35704" lon="5.91442">
        <ele>1142.8</ele>
        <time>2013-10-30T13:47:59Z</time>
      </trkpt>
      <trkpt lat="45.35706" lon="5.91455">
        <ele>1141.2</ele>
        <time>2013-10-30T13:48:09Z</time>
      </trkpt>
      <trkpt lat="45.35706" lon="5.91468">
        <ele>1138.5</ele>
        <time>2013-10-30T13:48:19Z</time>
      </trkpt>
      <trkpt lat="45.35706" lon="5.91481">
        <ele>1135.8</ele>
        <time>2013-10-30T13:48:30Z</time>
      </trkpt>
      <trkpt lat="45.35702" lon="5.91494">
        <ele>1133.6</ele>
        <time>2013-10-30T13:48:40Z</time>
      </trkpt>
      <trkpt lat="45.35699" lon="5.91507">
        <ele>1132</ele>
        <time>2013-10-30T13:48:49Z</time>
      </trkpt>
      <trkpt lat="45.35693" lon="5.91517">
        <ele>1129.4</ele>
        <time>2013-10-30T13:49:00Z</time>
      </trkpt>
      <trkpt lat="45.35687" lon="5.91528">
        <ele>1127.1</ele>
        <time>2013-10-30T13:49:12Z</time>
      </trkpt>
      <trkpt lat="45.35681" lon="5.91537">
        <ele>1125.5</ele>
        <time>2013-10-30T13:49:22Z</time>
      </trkpt>
      <trkpt lat="45.35675" lon="5.91546">
        <ele>1123.1</ele>
        <time>2013-10-30T13:49:33Z</time>
      </trkpt>
      <trkpt lat="45.35669" lon="5.91557">
        <ele>1120.7</ele>
        <time>2013-10-30T13:49:45Z</time>
      </trkpt>
      <trkpt lat="45.35664" lon="5.91567">
        <ele>1118.8</ele>
        <time>2013-10-30T13:49:54Z</time>
      </trkpt>
      <trkpt lat="45.35658" lon="5.91577">
        <ele>1117.4</ele>
        <time>2013-10-30T13:50:04Z</time>
      </trkpt>
      <trkpt lat="45.35652" lon="5.91587">
        <ele>1114.5</ele>
        <time>2013-10-30T13:50:14Z</time>
      </trkpt>
      <trkpt lat="45.35646" lon="5.91598">
        <ele>1112.2</ele>
        <time>2013-10-30T13:50:24Z</time>
      </trkpt>
      <trkpt lat="45.35641" lon="5.9161">
        <ele>1110.6</ele>
        <time>2013-10-30T13:50:34Z</time>
      </trkpt>
      <trkpt lat="45.35635" lon="5.91622">
        <ele>1108.1</ele>
        <time>2013-10-30T13:50:43Z</time>
      </trkpt>
      <trkpt lat="45.3563" lon="5.91633">
        <ele>1104.8</ele>
        <time>2013-10-30T13:50:52Z</time>
      </trkpt>
      <trkpt lat="45.35626" lon="5.91644">
        <ele>1102.9</ele>
        <time>2013-10-30T13:51:02Z</time>
      </trkpt>
      <trkpt lat="45.35621" lon="5.91656">
        <ele>1100.9</ele>
        <time>2013-10-30T13:51:12Z</time>
      </trkpt>
      <trkpt lat="45.35614" lon="5.91666">
        <ele>1100.1</ele>
        <time>2013-10-30T13:51:22Z</time>
      </trkpt>
      <trkpt lat="45.35608" lon="5.91676">
        <ele>1101.7</ele>
        <time>2013-10-30T13:51:32Z</time>
      </trkpt>
      <trkpt lat="45.35603" lon="5.91687">
        <ele>1102.5</ele>
        <time>2013-10-30T13:51:42Z</time>
      </trkpt>
      <trkpt lat="45.35596" lon="5.91696">
        <ele>1103</ele>
        <time>2013-10-30T13:51:51Z</time>
      </trkpt>
      <trkpt lat="45.35589" lon="5.91704">
        <ele>1101.1</ele>
        <time>2013-10-30T13:52:01Z</time>
      </trkpt>
      <trkpt lat="45.3558" lon="5.91706">
        <ele>1097.9</ele>
        <time>2013-10-30T13:52:12Z</time>
      </trkpt>
      <trkpt lat="45.35571" lon="5.91707">
        <ele>1097.6</ele>
        <time>2013-10-30T13:52:21Z</time>
      </trkpt>
      <trkpt lat="45.35564" lon="5.91716">
        <ele>1093.4</ele>
        <time>2013-10-30T13:52:30Z</time>
      </trkpt>
      <trkpt lat="45.35557" lon="5.91724">
        <ele>1091.5</ele>
        <time>2013-10-30T13:52:39Z</time>
      </trkpt>
      <trkpt lat="45.3556" lon="5.91736">
        <ele>1089.9</ele>
        <time>2013-10-30T13:52:48Z</time>
      </trkpt>
      <trkpt lat="45.35567" lon="5.91745">
        <ele>1089.3</ele>
        <time>2013-10-30T13:52:57Z</time>
      </trkpt>
      <trkpt lat="45.35574" lon="5.91752">
        <ele>1088</ele>
        <time>2013-10-30T13:53:05Z</time>
      </trkpt>
      <trkpt lat="45.35583" lon="5.91757">
        <ele>1086.4</ele>
        <time>2013-10-30T13:53:15Z</time>
      </trkpt>
      <trkpt lat="45.35588" lon="5.91768">
        <ele>1083.9</ele>
        <time>2013-10-30T13:53:28Z</time>
      </trkpt>
      <trkpt lat="45.35593" lon="5.9178">
        <ele>1083.5</ele>
        <time>2013-10-30T13:53:39Z</time>
      </trkpt>
      <trkpt lat="45.35594" lon="5.91793">
        <ele>1082.7</ele>
        <time>2013-10-30T13:53:51Z</time>
      </trkpt>
      <trkpt lat="45.35594" lon="5.91806">
        <ele>1080.2</ele>
        <time>2013-10-30T13:53:59Z</time>
      </trkpt>
      <trkpt lat="45.35594" lon="5.91819">
        <ele>1077.5</ele>
        <time>2013-10-30T13:54:07Z</time>
      </trkpt>
      <trkpt lat="45.35594" lon="5.91832">
        <ele>1075.5</ele>
        <time>2013-10-30T13:54:16Z</time>
      </trkpt>
      <trkpt lat="45.35595" lon="5.91846">
        <ele>1074.1</ele>
        <time>2013-10-30T13:54:26Z</time>
      </trkpt>
      <trkpt lat="45.35594" lon="5.91859">
        <ele>1073.7</ele>
        <time>2013-10-30T13:54:40Z</time>
      </trkpt>
      <trkpt lat="45.35596" lon="5.91871">
        <ele>1069.7</ele>
        <time>2013-10-30T13:55:15Z</time>
      </trkpt>
      <trkpt lat="45.3559" lon="5.91882">
        <ele>1068.8</ele>
        <time>2013-10-30T13:55:24Z</time>
      </trkpt>
      <trkpt lat="45.35582" lon="5.91887">
        <ele>1067.6</ele>
        <time>2013-10-30T13:55:33Z</time>
      </trkpt>
      <trkpt lat="45.35573" lon="5.91888">
        <ele>1066.5</ele>
        <time>2013-10-30T13:55:42Z</time>
      </trkpt>
      <trkpt lat="45.35564" lon="5.91884">
        <ele>1066.7</ele>
        <time>2013-10-30T13:55:51Z</time>
      </trkpt>
      <trkpt lat="45.35555" lon="5.9188">
        <ele>1065.5</ele>
        <time>2013-10-30T13:55:59Z</time>
      </trkpt>
      <trkpt lat="45.35547" lon="5.91876">
        <ele>1064.9</ele>
        <time>2013-10-30T13:56:07Z</time>
      </trkpt>
      <trkpt lat="45.35538" lon="5.91872">
        <ele>1063.8</ele>
        <time>2013-10-30T13:56:16Z</time>
      </trkpt>
      <trkpt lat="45.35528" lon="5.9187">
        <ele>1062.9</ele>
        <time>2013-10-30T13:56:25Z</time>
      </trkpt>
      <trkpt lat="45.35518" lon="5.9187">
        <ele>1062.7</ele>
        <time>2013-10-30T13:56:33Z</time>
      </trkpt>
      <trkpt lat="45.35509" lon="5.91868">
        <ele>1062.2</ele>
        <time>2013-10-30T13:56:42Z</time>
      </trkpt>
      <trkpt lat="45.355" lon="5.91865">
        <ele>1061.1</ele>
        <time>2013-10-30T13:56:52Z</time>
      </trkpt>
      <trkpt lat="45.35497" lon="5.91877">
        <ele>1060</ele>
        <time>2013-10-30T13:57:08Z</time>
      </trkpt>
      <trkpt lat="45.35496" lon="5.91891">
        <ele>1060.7</ele>
        <time>2013-10-30T13:57:21Z</time>
      </trkpt>
    </trkseg>
  </trk>
  <trk>
    <name><![CDATA[20190128093344-f4hkZ]]></name>
    <trkseg>
      <trkpt lat="45.33095" lon="5.84803">
        <ele>1010.1</ele>
      </trkpt>
      <trkpt lat="45.33095" lon="5.84803">
        <ele>1010.1</ele>
      </trkpt>
      <trkpt lat="45.33096" lon="5.84804">
        <ele>1010</ele>
      </trkpt>
      <trkpt lat="45.33093" lon="5.84812">
        <ele>1010.8</ele>
      </trkpt>
      <trkpt lat="45.33091" lon="5.84813">
        <ele>1010.9</ele>
      </trkpt>
      <trkpt lat="45.33089" lon="5.84811">
        <ele>1010.7</ele>
      </trkpt>
      <trkpt lat="45.33085" lon="5.84797">
        <ele>1009.6</ele>
      </trkpt>
      <trkpt lat="45.33085" lon="5.8479">
        <ele>1009</ele>
      </trkpt>
      <trkpt lat="45.33081" lon="5.84788">
        <ele>1019.2</ele>
      </trkpt>
      <trkpt lat="45.33073" lon="5.84791">
        <ele>1020.3</ele>
      </trkpt>
      <trkpt lat="45.33065" lon="5.848">
        <ele>1021.7</ele>
      </trkpt>
      <trkpt lat="45.33056" lon="5.84805">
        <ele>1023.3</ele>
      </trkpt>
      <trkpt lat="45.33041" lon="5.84824">
        <ele>1026.8</ele>
      </trkpt>
      <trkpt lat="45.33035" lon="5.84838">
        <ele>1033.7</ele>
      </trkpt>
      <trkpt lat="45.33034" lon="5.8485">
        <ele>1034.3</ele>
      </trkpt>
      <trkpt lat="45.33039" lon="5.84866">
        <ele>1034.1</ele>
      </trkpt>
      <trkpt lat="45.33056" lon="5.84883">
        <ele>1032.1</ele>
      </trkpt>
      <trkpt lat="45.33061" lon="5.8489">
        <ele>1031.5</ele>
      </trkpt>
      <trkpt lat="45.33062" lon="5.84899">
        <ele>1031.3</ele>
      </trkpt>
      <trkpt lat="45.3306" lon="5.84905">
        <ele>1031.6</ele>
      </trkpt>
      <trkpt lat="45.33054" lon="5.84898">
        <ele>1033</ele>
      </trkpt>
      <trkpt lat="45.33044" lon="5.84887">
        <ele>1034.6</ele>
      </trkpt>
      <trkpt lat="45.33034" lon="5.84873">
        <ele>1035.5</ele>
      </trkpt>
      <trkpt lat="45.33015" lon="5.8481">
        <ele>1032.3</ele>
      </trkpt>
      <trkpt lat="45.3301" lon="5.84806">
        <ele>1032.6</ele>
      </trkpt>
      <trkpt lat="45.33003" lon="5.84806">
        <ele>1033.4</ele>
      </trkpt>
      <trkpt lat="45.32999" lon="5.84813">
        <ele>1055.3</ele>
      </trkpt>
      <trkpt lat="45.32997" lon="5.84824">
        <ele>1050.8</ele>
      </trkpt>
      <trkpt lat="45.33003" lon="5.84859">
        <ele>1039.1</ele>
      </trkpt>
      <trkpt lat="45.33027" lon="5.84943">
        <ele>1050.6</ele>
      </trkpt>
      <trkpt lat="45.33034" lon="5.84992">
        <ele>1054.6</ele>
      </trkpt>
      <trkpt lat="45.33038" lon="5.85034">
        <ele>1070</ele>
      </trkpt>
      <trkpt lat="45.33062" lon="5.85114">
        <ele>1087.7</ele>
      </trkpt>
      <trkpt lat="45.33068" lon="5.85154">
        <ele>1090.2</ele>
      </trkpt>
      <trkpt lat="45.33064" lon="5.85185">
        <ele>1100.9</ele>
      </trkpt>
      <trkpt lat="45.33063" lon="5.85195">
        <ele>1102.9</ele>
      </trkpt>
      <trkpt lat="45.3306" lon="5.85247">
        <ele>1103.5</ele>
      </trkpt>
      <trkpt lat="45.33049" lon="5.85321">
        <ele>1099.3</ele>
      </trkpt>
      <trkpt lat="45.33049" lon="5.8533">
        <ele>1098.8</ele>
      </trkpt>
      <trkpt lat="45.33051" lon="5.85336">
        <ele>1095.8</ele>
      </trkpt>
      <trkpt lat="45.33053" lon="5.85337">
        <ele>1095.5</ele>
      </trkpt>
      <trkpt lat="45.33054" lon="5.85354">
        <ele>1096.3</ele>
      </trkpt>
      <trkpt lat="45.33054" lon="5.85354">
        <ele>1096</ele>
      </trkpt>
      <trkpt lat="45.33057" lon="5.85365">
        <ele>1096.8</ele>
      </trkpt>
      <trkpt lat="45.33074" lon="5.85389">
        <ele>1097.8</ele>
      </trkpt>
      <trkpt lat="45.33114" lon="5.85459">
        <ele>1109.9</ele>
      </trkpt>
      <trkpt lat="45.33157" lon="5.85505">
        <ele>1120.7</ele>
      </trkpt>
      <trkpt lat="45.33173" lon="5.85519">
        <ele>1124.7</ele>
      </trkpt>
      <trkpt lat="45.33173" lon="5.85519">
        <ele>1125</ele>
      </trkpt>
      <trkpt lat="45.33241" lon="5.85575">
        <ele>1134.7</ele>
      </trkpt>
      <trkpt lat="45.33249" lon="5.85586">
        <ele>1138.2</ele>
      </trkpt>
      <trkpt lat="45.33257" lon="5.85642">
        <ele>1155.7</ele>
      </trkpt>
      <trkpt lat="45.33324" lon="5.85698">
        <ele>1169.6</ele>
      </trkpt>
      <trkpt lat="45.33383" lon="5.85758">
        <ele>1178.8</ele>
      </trkpt>
      <trkpt lat="45.33392" lon="5.85825">
        <ele>1183.1</ele>
      </trkpt>
      <trkpt lat="45.33434" lon="5.85872">
        <ele>1186.7</ele>
      </trkpt>
      <trkpt lat="45.33473" lon="5.85908">
        <ele>1187.4</ele>
      </trkpt>
      <trkpt lat="45.33499" lon="5.85848">
        <ele>1183.9</ele>
      </trkpt>
      <trkpt lat="45.33589" lon="5.85867">
        <ele>1204.5</ele>
      </trkpt>
      <trkpt lat="45.33662" lon="5.85874">
        <ele>1211.8</ele>
      </trkpt>
      <trkpt lat="45.33633" lon="5.85915">
        <ele>1208.5</ele>
      </trkpt>
      <trkpt lat="45.33624" lon="5.85992">
        <ele>1210</ele>
      </trkpt>
      <trkpt lat="45.33642" lon="5.86095">
        <ele>1227.2</ele>
      </trkpt>
      <trkpt lat="45.33687" lon="5.86142">
        <ele>1242</ele>
      </trkpt>
      <trkpt lat="45.33711" lon="5.86144">
        <ele>1246.6</ele>
      </trkpt>
      <trkpt lat="45.33749" lon="5.86005">
        <ele>1253.8</ele>
      </trkpt>
      <trkpt lat="45.33778" lon="5.85962">
        <ele>1252</ele>
      </trkpt>
      <trkpt lat="45.33825" lon="5.86035">
        <ele>1271.5</ele>
      </trkpt>
      <trkpt lat="45.33874" lon="5.86161">
        <ele>1302.2</ele>
      </trkpt>
      <trkpt lat="45.34051" lon="5.86194">
        <ele>1353.8</ele>
      </trkpt>
      <trkpt lat="45.33992" lon="5.86299">
        <ele>1349.2</ele>
      </trkpt>
      <trkpt lat="45.34096" lon="5.86286">
        <ele>1400.4</ele>
      </trkpt>
      <trkpt lat="45.34188" lon="5.86269">
        <ele>1426.8</ele>
      </trkpt>
      <trkpt lat="45.34218" lon="5.8626">
        <ele>1434.3</ele>
      </trkpt>
      <trkpt lat="45.3423" lon="5.86226">
        <ele>1420.6</ele>
      </trkpt>
      <trkpt lat="45.34265" lon="5.86189">
        <ele>1429</ele>
      </trkpt>
      <trkpt lat="45.3431" lon="5.86187">
        <ele>1431.9</ele>
      </trkpt>
      <trkpt lat="45.34358" lon="5.86222">
        <ele>1437.8</ele>
      </trkpt>
      <trkpt lat="45.34401" lon="5.86241">
        <ele>1438.3</ele>
      </trkpt>
      <trkpt lat="45.34496" lon="5.86297">
        <ele>1462.2</ele>
      </trkpt>
      <trkpt lat="45.34553" lon="5.86361">
        <ele>1481.3</ele>
      </trkpt>
      <trkpt lat="45.34621" lon="5.86428">
        <ele>1492.7</ele>
      </trkpt>
      <trkpt lat="45.3468" lon="5.86451">
        <ele>1492.7</ele>
      </trkpt>
      <trkpt lat="45.34651" lon="5.86496">
        <ele>1503.1</ele>
      </trkpt>
      <trkpt lat="45.34571" lon="5.86507">
        <ele>1525.2</ele>
      </trkpt>
      <trkpt lat="45.34536" lon="5.86466">
        <ele>1517.1</ele>
      </trkpt>
      <trkpt lat="45.34482" lon="5.86436">
        <ele>1530.3</ele>
      </trkpt>
      <trkpt lat="45.3442" lon="5.8649">
        <ele>1548.6</ele>
      </trkpt>
      <trkpt lat="45.34346" lon="5.86588">
        <ele>1575.8</ele>
      </trkpt>
      <trkpt lat="45.34285" lon="5.86644">
        <ele>1575.3</ele>
      </trkpt>
      <trkpt lat="45.34212" lon="5.86702">
        <ele>1577.6</ele>
      </trkpt>
      <trkpt lat="45.34186" lon="5.8679">
        <ele>1603.7</ele>
      </trkpt>
      <trkpt lat="45.3417" lon="5.86852">
        <ele>1615.8</ele>
      </trkpt>
      <trkpt lat="45.34191" lon="5.86921">
        <ele>1625.6</ele>
      </trkpt>
      <trkpt lat="45.34194" lon="5.87054">
        <ele>1636</ele>
      </trkpt>
      <trkpt lat="45.34211" lon="5.8708">
        <ele>1642.9</ele>
      </trkpt>
      <trkpt lat="45.34205" lon="5.87148">
        <ele>1664.9</ele>
      </trkpt>
      <trkpt lat="45.3414" lon="5.872">
        <ele>1665.7</ele>
      </trkpt>
      <trkpt lat="45.34073" lon="5.872">
        <ele>1639.9</ele>
      </trkpt>
      <trkpt lat="45.34057" lon="5.8726">
        <ele>1665</ele>
      </trkpt>
      <trkpt lat="45.33986" lon="5.87372">
        <ele>1684.3</ele>
      </trkpt>
      <trkpt lat="45.34033" lon="5.87395">
        <ele>1704.1</ele>
      </trkpt>
      <trkpt lat="45.34088" lon="5.8738">
        <ele>1722.7</ele>
      </trkpt>
      <trkpt lat="45.34031" lon="5.87457">
        <ele>1727.8</ele>
      </trkpt>
      <trkpt lat="45.34034" lon="5.875">
        <ele>1750.4</ele>
      </trkpt>
      <trkpt lat="45.34061" lon="5.8752">
        <ele>1755.8</ele>
      </trkpt>
      <trkpt lat="45.34119" lon="5.87494">
        <ele>1754.2</ele>
      </trkpt>
      <trkpt lat="45.34212" lon="5.87417">
        <ele>1758.4</ele>
      </trkpt>
      <trkpt lat="45.34222" lon="5.874">
        <ele>1761.6</ele>
      </trkpt>
      <trkpt lat="45.34213" lon="5.87459">
        <ele>1780.5</ele>
      </trkpt>
      <trkpt lat="45.34194" lon="5.87511">
        <ele>1808.3</ele>
      </trkpt>
      <trkpt lat="45.34229" lon="5.87494">
        <ele>1795.4</ele>
      </trkpt>
      <trkpt lat="45.3421" lon="5.87539">
        <ele>1820.2</ele>
      </trkpt>
      <trkpt lat="45.34275" lon="5.87509">
        <ele>1828.8</ele>
      </trkpt>
      <trkpt lat="45.34258" lon="5.87559">
        <ele>1853</ele>
      </trkpt>
      <trkpt lat="45.34294" lon="5.87552">
        <ele>1846.9</ele>
      </trkpt>
      <trkpt lat="45.34271" lon="5.87612">
        <ele>1885.2</ele>
      </trkpt>
      <trkpt lat="45.34271" lon="5.87651">
        <ele>1889.1</ele>
      </trkpt>
      <trkpt lat="45.34242" lon="5.87717">
        <ele>1872.4</ele>
      </trkpt>
      <trkpt lat="45.34203" lon="5.87775">
        <ele>1874.6</ele>
      </trkpt>
      <trkpt lat="45.3419" lon="5.87818">
        <ele>1882.9</ele>
      </trkpt>
      <trkpt lat="45.3417" lon="5.87848">
        <ele>1898.7</ele>
      </trkpt>
      <trkpt lat="45.34144" lon="5.87899">
        <ele>1925.1</ele>
      </trkpt>
      <trkpt lat="45.34221" lon="5.87762">
        <ele>1874.7</ele>
      </trkpt>
      <trkpt lat="45.34343" lon="5.8758">
        <ele>1842.3</ele>
      </trkpt>
      <trkpt lat="45.34425" lon="5.87584">
        <ele>1659.3</ele>
      </trkpt>
      <trkpt lat="45.34469" lon="5.87597">
        <ele>1662.8</ele>
      </trkpt>
      <trkpt lat="45.34542" lon="5.87674">
        <ele>1633.3</ele>
      </trkpt>
      <trkpt lat="45.34487" lon="5.87741">
        <ele>1658.6</ele>
      </trkpt>
      <trkpt lat="45.34502" lon="5.87764">
        <ele>1659.6</ele>
      </trkpt>
      <trkpt lat="45.34499" lon="5.8782">
        <ele>1754.9</ele>
      </trkpt>
      <trkpt lat="45.3452" lon="5.87861">
        <ele>1767.4</ele>
      </trkpt>
      <trkpt lat="45.3457" lon="5.87925">
        <ele>1786.9</ele>
      </trkpt>
      <trkpt lat="45.34628" lon="5.87977">
        <ele>1777</ele>
      </trkpt>
      <trkpt lat="45.34689" lon="5.88022">
        <ele>1817.5</ele>
      </trkpt>
      <trkpt lat="45.3474" lon="5.88065">
        <ele>1825.5</ele>
      </trkpt>
      <trkpt lat="45.34811" lon="5.88043">
        <ele>1714</ele>
      </trkpt>
      <trkpt lat="45.34858" lon="5.88063">
        <ele>1627.4</ele>
      </trkpt>
      <trkpt lat="45.34903" lon="5.88084">
        <ele>1615.8</ele>
      </trkpt>
      <trkpt lat="45.34945" lon="5.8809">
        <ele>1598.5</ele>
      </trkpt>
      <trkpt lat="45.34992" lon="5.88095">
        <ele>1589.7</ele>
      </trkpt>
      <trkpt lat="45.35007" lon="5.88121">
        <ele>1599.2</ele>
      </trkpt>
      <trkpt lat="45.35037" lon="5.88129">
        <ele>1600.9</ele>
      </trkpt>
      <trkpt lat="45.35061" lon="5.88168">
        <ele>1651.2</ele>
      </trkpt>
      <trkpt lat="45.35075" lon="5.8817">
        <ele>1633.1</ele>
      </trkpt>
      <trkpt lat="45.35094" lon="5.88127">
        <ele>1584.4</ele>
      </trkpt>
      <trkpt lat="45.35137" lon="5.88136">
        <ele>1580.1</ele>
      </trkpt>
      <trkpt lat="45.35189" lon="5.88168">
        <ele>1606.5</ele>
      </trkpt>
      <trkpt lat="45.35256" lon="5.88163">
        <ele>1577.9</ele>
      </trkpt>
      <trkpt lat="45.35324" lon="5.88168">
        <ele>1592.8</ele>
      </trkpt>
      <trkpt lat="45.3539" lon="5.88245">
        <ele>1595.7</ele>
      </trkpt>
      <trkpt lat="45.35455" lon="5.88316">
        <ele>1668.5</ele>
      </trkpt>
      <trkpt lat="45.35517" lon="5.88372">
        <ele>1678.7</ele>
      </trkpt>
      <trkpt lat="45.35574" lon="5.88404">
        <ele>1676.9</ele>
      </trkpt>
      <trkpt lat="45.35603" lon="5.88479">
        <ele>1701.8</ele>
      </trkpt>
      <trkpt lat="45.35634" lon="5.88535">
        <ele>1742.6</ele>
      </trkpt>
      <trkpt lat="45.35685" lon="5.88543">
        <ele>1709.5</ele>
      </trkpt>
      <trkpt lat="45.35696" lon="5.88685">
        <ele>1639</ele>
      </trkpt>
      <trkpt lat="45.3569" lon="5.88857">
        <ele>1621</ele>
      </trkpt>
      <trkpt lat="45.35729" lon="5.88949">
        <ele>1621</ele>
      </trkpt>
      <trkpt lat="45.35755" lon="5.89078">
        <ele>1618.2</ele>
      </trkpt>
      <trkpt lat="45.35771" lon="5.89198">
        <ele>1603.8</ele>
      </trkpt>
      <trkpt lat="45.35789" lon="5.89305">
        <ele>1600.8</ele>
      </trkpt>
      <trkpt lat="45.35799" lon="5.89429">
        <ele>1709.8</ele>
      </trkpt>
      <trkpt lat="45.35794" lon="5.89511">
        <ele>1798.2</ele>
      </trkpt>
      <trkpt lat="45.35811" lon="5.89558">
        <ele>1798.4</ele>
      </trkpt>
      <trkpt lat="45.35821" lon="5.89616">
        <ele>1804.3</ele>
      </trkpt>
      <trkpt lat="45.35838" lon="5.89693">
        <ele>1815.8</ele>
      </trkpt>
    </trkseg>
  </trk>
</gpx>